Bel Air, Maryland - USA |
Today's Data File |
5/9/26
Time Wind Dir Wind Spd Wind Gust Hum In Humidity Temp In Temp Raw Barom Wind Chill Press Alt Cloud Base Dens Alt Temp Out R DailyRain 24HrRain RainRate
� mph mph % % �F �F in �F ft ft ft �F/hr in in in/hr
12:00am 174 3 5 38 82 75.4 57.6 29.33 57.6 551 1362 608 -1.32 0.00 0.00 0.000
12:01am 186 3 3 38 82 75.4 57.5 29.33 57.5 552 1361 602 -1.38 0.00 0.00 0.000
12:02am 174 5 7 38 82 75.4 57.5 29.33 57.0 552 1361 602 -1.37 0.00 0.00 0.000
12:03am 185 2 7 38 82 75.4 57.5 29.33 57.5 552 1361 602 -1.35 0.00 0.00 0.000
12:04am 239 5 7 38 82 75.4 57.5 29.33 57.0 552 1361 602 -1.33 0.00 0.00 0.000
12:05am 169 4 7 39 82 75.4 57.5 29.33 57.5 552 1361 602 -1.31 0.00 0.00 0.000
12:06am 177 1 4 39 82 75.4 57.5 29.33 57.5 551 1361 601 -1.29 0.00 0.00 0.000
12:07am 202 5 7 38 82 75.4 57.4 29.33 56.9 551 1360 594 -1.36 0.00 0.00 0.000
12:08am 187 7 7 38 82 75.4 57.4 29.33 56.1 551 1360 594 -1.34 0.00 0.00 0.000
12:09am 170 3 8 38 82 75.4 57.4 29.33 57.4 551 1360 594 -1.32 0.00 0.00 0.000
12:10am 173 2 8 38 82 75.4 57.4 29.33 57.4 551 1360 594 -1.30 0.00 0.00 0.000
12:11am 182 5 8 38 82 75.4 57.4 29.33 56.9 551 1360 594 -1.28 0.00 0.00 0.000
12:12am 183 2 8 38 82 75.4 57.4 29.33 57.4 552 1360 596 -1.25 0.00 0.00 0.000
12:13am 183 1 8 38 82 75.4 57.4 29.33 57.4 551 1360 594 -1.23 0.00 0.00 0.000
12:14am 183 3 8 38 82 75.4 57.4 29.33 57.4 551 1360 594 -1.21 0.00 0.00 0.000
12:15am 188 4 8 39 82 75.4 57.3 29.33 57.3 551 1360 588 -1.29 0.00 0.00 0.000
12:16am 197 0 5 39 82 75.4 57.4 29.33 57.4 551 1360 594 -1.17 0.00 0.00 0.000
12:17am 196 1 5 38 82 75.4 57.3 29.33 57.3 551 1360 588 -1.25 0.00 0.00 0.000
12:18am 196 0 5 39 82 75.4 57.3 29.33 57.3 551 1360 588 -1.23 0.00 0.00 0.000
12:19am 166 2 5 39 82 75.4 57.3 29.33 57.3 551 1360 588 -1.21 0.00 0.00 0.000
12:20am 150 3 5 39 82 75.4 57.3 29.33 57.3 551 1360 588 -1.19 0.00 0.00 0.000
12:21am 186 3 4 39 82 75.4 57.2 29.33 57.2 551 1359 581 -1.27 0.00 0.00 0.000
12:22am 186 1 4 39 82 75.4 57.2 29.33 57.2 552 1359 582 -1.25 0.00 0.00 0.000
12:23am 154 4 9 38 82 75.4 57.3 29.33 57.3 552 1360 589 -1.13 0.00 0.00 0.000
12:24am 168 1 9 39 82 75.4 57.2 29.33 57.2 552 1359 582 -1.21 0.00 0.00 0.000
12:25am 229 3 9 39 82 75.4 57.2 29.33 57.2 552 1359 582 -1.19 0.00 0.00 0.000
12:26am 243 5 6 39 82 75.4 57.2 29.33 56.7 552 1359 582 -1.17 0.00 0.00 0.000
12:27am 151 6 6 39 82 75.4 57.2 29.33 56.2 552 1359 582 -1.15 0.00 0.00 0.000
12:28am 181 2 6 39 82 75.4 57.2 29.33 57.2 553 1359 584 -1.13 0.00 0.00 0.000
12:29am 207 3 6 39 82 75.4 57.2 29.33 57.2 552 1359 582 -1.11 0.00 0.00 0.000
12:30am 226 3 6 39 82 75.4 57.2 29.33 57.2 552 1359 582 -1.09 0.00 0.00 0.000
12:31am 220 2 3 39 82 75.4 57.2 29.33 57.2 552 1359 582 -1.08 0.00 0.00 0.000
12:32am 182 4 4 39 82 75.4 57.2 29.33 57.2 552 1359 582 -1.06 0.00 0.00 0.000
12:33am 169 1 5 39 82 75.4 57.1 29.33 57.1 553 1359 577 -1.14 0.00 0.00 0.000
12:34am 169 1 5 39 82 75.4 57.1 29.33 57.1 553 1359 577 -1.12 0.00 0.00 0.000
12:35am 208 3 5 39 82 75.4 57.1 29.33 57.1 553 1359 577 -1.10 0.00 0.00 0.000
12:36am 205 2 3 38 82 75.4 57.0 29.33 57.0 553 1358 570 -1.18 0.00 0.00 0.000
12:37am 189 5 6 39 82 75.4 57.0 29.33 56.4 554 1358 572 -1.16 0.00 0.00 0.000
12:38am 170 6 6 39 82 75.4 57.0 29.33 56.0 554 1358 572 -1.14 0.00 0.00 0.000
12:39am 185 3 6 39 82 75.4 57.0 29.33 57.0 554 1358 572 -1.13 0.00 0.00 0.000
12:40am 181 2 6 39 82 75.4 57.0 29.33 57.0 554 1358 572 -1.11 0.00 0.00 0.000
12:41am 165 3 4 39 82 75.4 57.0 29.33 57.0 554 1358 572 -1.09 0.00 0.00 0.000
12:42am 165 2 6 39 82 75.4 56.9 29.32 56.9 555 1358 566 -1.17 0.00 0.00 0.000
12:43am 156 2 6 39 82 75.4 56.9 29.33 56.9 554 1358 565 -1.15 0.00 0.00 0.000
12:44am 168 2 6 39 82 75.4 56.9 29.33 56.9 554 1358 565 -1.13 0.00 0.00 0.000
12:45am 175 2 6 39 82 75.4 56.9 29.33 56.9 554 1358 565 -1.11 0.00 0.00 0.000
12:46am 175 1 2 39 82 75.4 56.9 29.33 56.9 553 1358 564 -1.09 0.00 0.00 0.000
12:47am 172 2 6 39 82 75.4 56.9 29.33 56.9 553 1358 564 -1.08 0.00 0.00 0.000
12:48am 168 1 6 39 82 75.4 56.8 29.33 56.8 554 1357 558 -1.16 0.00 0.00 0.000
12:49am 214 0 6 39 82 75.4 56.8 29.33 56.8 553 1357 557 -1.14 0.00 0.00 0.000
12:50am 185 1 6 38 82 75.4 56.8 29.33 56.8 553 1357 557 -1.12 0.00 0.00 0.000
12:51am 195 3 4 39 82 75.4 56.8 29.33 56.8 554 1357 558 -1.10 0.00 0.00 0.000
12:52am 194 4 4 39 82 75.4 56.7 29.33 56.6 554 1356 552 -1.18 0.00 0.00 0.000
12:53am 185 2 5 39 82 75.4 56.7 29.33 56.7 553 1356 551 -1.16 0.00 0.00 0.000
12:54am 171 4 5 39 83 75.4 56.6 29.33 56.5 553 1274 544 -1.24 0.00 0.00 0.000
12:55am 198 1 6 39 83 75.4 56.6 29.33 56.6 553 1274 544 -1.22 0.00 0.00 0.000
12:56am 198 2 3 39 83 75.4 56.6 29.33 56.6 553 1274 544 -1.20 0.00 0.00 0.000
12:57am 198 2 3 39 83 75.4 56.5 29.33 56.5 553 1273 537 -1.28 0.00 0.00 0.000
12:58am 198 1 3 39 83 75.4 56.5 29.33 56.5 553 1273 537 -1.26 0.00 0.00 0.000
12:59am 198 2 3 39 83 75.4 56.5 29.33 56.5 553 1273 537 -1.24 0.00 0.00 0.000
1:00am 195 4 4 39 83 75.4 56.5 29.33 56.4 553 1273 537 -1.22 0.00 0.00 0.000
1:01am 183 2 7 39 83 75.4 56.5 29.33 56.5 554 1273 539 -1.20 0.00 0.00 0.000
1:02am 264 3 7 39 83 75.4 56.4 29.33 56.4 554 1273 532 -1.28 0.00 0.00 0.000
1:03am 197 2 7 39 83 75.4 56.5 29.33 56.5 554 1273 539 -1.16 0.00 0.00 0.000
1:04am 197 1 7 39 83 75.4 56.4 29.32 56.4 555 1273 533 -1.24 0.00 0.00 0.000
1:05am 195 0 7 39 83 75.4 56.4 29.32 56.4 555 1273 533 -1.22 0.00 0.00 0.000
1:06am 195 2 2 40 83 75.4 56.4 29.32 56.4 555 1273 533 -1.20 0.00 0.00 0.000
1:07am 179 1 5 39 83 75.4 56.3 29.32 56.3 555 1272 527 -1.28 0.00 0.00 0.000
1:08am 179 2 5 39 83 75.4 56.3 29.32 56.3 555 1272 527 -1.26 0.00 0.00 0.000
1:09am 179 4 6 39 84 75.4 56.3 29.32 56.1 555 1191 527 -1.23 0.00 0.00 0.000
1:10am 199 4 6 39 84 75.4 56.2 29.32 56.0 555 1191 520 -1.31 0.00 0.00 0.000
1:11am 165 4 6 39 84 75.4 56.2 29.32 56.0 556 1191 521 -1.29 0.00 0.00 0.000
1:12am 158 2 6 39 84 75.4 56.2 29.32 56.2 556 1191 521 -1.27 0.00 0.00 0.000
1:13am 265 2 6 39 84 75.4 56.2 29.32 56.2 556 1191 521 -1.25 0.00 0.00 0.000
1:14am 251 2 6 39 84 75.4 56.2 29.32 56.2 556 1191 521 -1.23 0.00 0.00 0.000
1:15am 193 3 6 38 84 75.4 56.2 29.32 56.2 557 1191 522 -1.21 0.00 0.00 0.000
1:16am 187 3 3 39 84 75.4 56.2 29.32 56.2 557 1191 522 -1.19 0.00 0.00 0.000
1:17am 189 1 6 39 84 75.4 56.2 29.32 56.2 558 1191 523 -1.17 0.00 0.00 0.000
1:18am 181 1 6 39 84 75.4 56.1 29.32 56.1 560 1190 519 -1.25 0.00 0.00 0.000
1:19am 177 3 6 39 84 75.4 56.1 29.32 56.1 559 1190 518 -1.23 0.00 0.00 0.000
1:20am 209 3 6 39 84 75.4 56.1 29.32 56.1 560 1190 519 -1.21 0.00 0.00 0.000
1:21am 192 1 4 38 84 75.4 56.0 29.32 56.0 560 1190 512 -1.29 0.00 0.00 0.000
1:22am 192 2 4 39 84 75.4 56.0 29.32 56.0 560 1190 512 -1.27 0.00 0.00 0.000
1:23am 192 1 4 39 84 75.4 56.0 29.32 56.0 560 1190 512 -1.25 0.00 0.00 0.000
1:24am 192 0 4 39 84 75.4 56.0 29.32 56.0 560 1190 514 -1.23 0.00 0.00 0.000
1:25am 192 4 5 39 85 75.4 56.0 29.32 55.8 560 1110 514 -1.21 0.00 0.00 0.000
1:26am 192 2 4 38 85 75.4 56.0 29.32 56.0 560 1110 512 -1.19 0.00 0.00 0.000
1:27am 174 3 4 39 85 75.4 56.0 29.32 56.0 559 1110 511 -1.17 0.00 0.00 0.000
1:28am 174 2 4 38 85 75.4 56.0 29.32 56.0 559 1110 511 -1.15 0.00 0.00 0.000
1:29am 179 3 6 39 85 75.4 56.0 29.32 56.0 560 1110 512 -1.13 0.00 0.00 0.000
1:30am 237 2 6 39 85 75.4 56.0 29.32 56.0 560 1110 514 -1.11 0.00 0.00 0.000
1:31am 237 1 3 39 85 75.4 55.9 29.32 55.9 561 1109 508 -1.19 0.00 0.00 0.000
1:32am 160 3 4 39 85 75.4 55.9 29.32 55.9 562 1109 509 -1.17 0.00 0.00 0.000
1:33am 160 1 4 39 85 75.4 55.9 29.32 55.9 562 1109 509 -1.15 0.00 0.00 0.000
1:34am 168 6 8 38 85 75.4 55.8 29.32 54.6 561 1109 502 -1.23 0.00 0.00 0.000
1:35am 168 2 8 39 85 75.4 55.9 29.32 55.9 563 1109 510 -1.11 0.00 0.00 0.000
1:36am 168 1 3 39 85 75.4 55.8 29.32 55.8 563 1109 504 -1.19 0.00 0.00 0.000
1:37am 181 1 3 39 85 75.4 55.8 29.31 55.8 565 1109 506 -1.17 0.00 0.00 0.000
1:38am 196 3 3 39 85 75.4 55.8 29.31 55.8 565 1109 506 -1.15 0.00 0.00 0.000
1:39am 158 3 7 39 85 75.4 55.8 29.31 55.8 566 1109 507 -1.13 0.00 0.00 0.000
1:40am 158 0 7 39 86 75.4 55.8 29.31 55.8 565 1030 506 -1.12 0.00 0.00 0.000
1:41am 191 3 7 39 85 75.4 55.9 29.31 55.9 565 1109 513 -1.00 0.00 0.00 0.000
1:42am 191 4 7 39 85 75.4 55.8 29.31 55.6 565 1109 506 -1.08 0.00 0.00 0.000
1:43am 191 2 7 39 85 75.4 55.8 29.32 55.8 564 1109 505 -1.06 0.00 0.00 0.000
1:44am 191 3 7 39 85 75.4 55.8 29.32 55.8 564 1109 505 -1.05 0.00 0.00 0.000
1:45am 191 1 7 39 85 75.4 55.7 29.32 55.7 564 1108 498 -1.13 0.00 0.00 0.000
1:46am 229 2 3 39 86 75.4 55.8 29.32 55.8 564 1030 505 -1.01 0.00 0.00 0.000
1:47am 193 4 5 39 86 75.4 55.7 29.31 55.5 566 1029 501 -1.09 0.00 0.00 0.000
1:48am 193 3 5 39 86 75.4 55.7 29.31 55.7 566 1029 501 -1.07 0.00 0.00 0.000
1:49am 174 2 5 39 86 75.4 55.7 29.31 55.7 566 1029 501 -1.06 0.00 0.00 0.000
1:50am 174 2 5 39 86 75.4 55.7 29.31 55.7 566 1029 501 -1.04 0.00 0.00 0.000
1:51am 231 1 2 39 86 75.4 55.7 29.31 55.7 566 1029 501 -1.02 0.00 0.00 0.000
1:52am 202 2 4 39 86 75.4 55.7 29.31 55.7 566 1029 501 -1.00 0.00 0.00 0.000
1:53am 207 0 7 39 86 75.4 55.6 29.31 55.6 567 1029 495 -1.09 0.00 0.00 0.000
1:54am 207 3 7 39 86 75.4 55.6 29.31 55.6 567 1029 495 -1.07 0.00 0.00 0.000
1:55am 191 2 7 39 86 75.4 55.6 29.31 55.6 567 1029 495 -1.05 0.00 0.00 0.000
1:56am 191 2 2 39 86 75.4 55.6 29.31 55.6 567 1029 495 -1.03 0.00 0.00 0.000
1:57am 191 2 2 39 86 75.4 55.6 29.31 55.6 567 1029 495 -1.02 0.00 0.00 0.000
1:58am 191 1 2 39 86 75.4 55.5 29.31 55.5 567 1028 489 -1.10 0.00 0.00 0.000
1:59am 191 1 2 39 86 75.4 55.5 29.31 55.5 567 1028 489 -1.08 0.00 0.00 0.000
2:00am 191 2 3 39 86 75.4 55.5 29.31 55.5 566 1028 487 -1.06 0.00 0.00 0.000
2:01am 191 2 3 39 86 75.4 55.4 29.31 55.4 567 1028 482 -1.14 0.00 0.00 0.000
2:02am 191 4 5 39 86 75.4 55.4 29.31 55.1 567 1028 482 -1.12 0.00 0.00 0.000
2:03am 164 4 5 39 86 75.4 55.4 29.31 55.1 567 1028 482 -1.11 0.00 0.00 0.000
2:04am 206 2 5 39 86 75.4 55.4 29.31 55.4 567 1028 482 -1.09 0.00 0.00 0.000
2:05am 208 3 5 39 86 75.4 55.4 29.31 55.4 568 1028 483 -1.07 0.00 0.00 0.000
2:06am 208 1 3 38 86 75.4 55.5 29.31 55.5 568 1028 490 -0.95 0.00 0.00 0.000
2:07am 185 0 5 39 86 75.4 55.4 29.31 55.4 569 1028 484 -1.04 0.00 0.00 0.000
2:08am 185 2 5 39 86 75.4 55.4 29.31 55.4 569 1028 484 -1.02 0.00 0.00 0.000
2:09am 204 2 5 39 86 75.4 55.4 29.31 55.4 570 1028 485 -1.01 0.00 0.00 0.000
2:10am 170 2 6 39 86 75.4 55.5 29.31 55.5 569 1028 491 -0.89 0.00 0.00 0.000
2:11am 185 3 3 39 86 75.4 55.5 29.31 55.5 571 1028 493 -0.88 0.00 0.00 0.000
2:12am 182 0 3 39 86 75.4 55.5 29.31 55.5 571 1028 493 -0.86 0.00 0.00 0.000
2:13am 193 4 4 39 86 75.4 55.5 29.31 55.2 572 1028 494 -0.85 0.00 0.00 0.000
2:14am 193 0 4 39 86 75.4 55.5 29.31 55.5 572 1028 494 -0.83 0.00 0.00 0.000
2:15am 193 1 4 39 86 75.4 55.5 29.31 55.5 573 1028 497 -0.82 0.00 0.00 0.000
2:16am 197 3 5 39 86 75.4 55.5 29.30 55.5 574 1028 498 -0.81 0.00 0.00 0.000
2:17am 231 2 6 39 86 75.4 55.5 29.30 55.5 574 1028 498 -0.79 0.00 0.00 0.000
2:18am 176 5 7 39 86 75.4 55.5 29.30 54.7 575 1028 499 -0.78 0.00 0.00 0.000
2:19am 189 4 7 39 86 75.4 55.6 29.30 55.3 578 1029 509 -0.67 0.00 0.00 0.000
2:20am 195 2 7 39 85 75.4 55.6 29.30 55.6 578 1108 509 -0.66 0.00 0.00 0.000
2:21am 193 4 4 39 86 75.4 55.7 29.30 55.5 579 1029 517 -0.55 0.00 0.00 0.000
2:22am 166 3 4 39 85 75.4 55.7 29.30 55.7 577 1108 514 -0.54 0.00 0.00 0.000
2:23am 181 1 4 39 85 75.4 55.7 29.30 55.7 577 1108 514 -0.53 0.00 0.00 0.000
2:24am 181 0 4 39 85 75.4 55.7 29.30 55.7 578 1108 516 -0.52 0.00 0.00 0.000
2:25am 205 3 5 39 85 75.4 55.7 29.30 55.7 576 1108 513 -0.51 0.00 0.00 0.000
2:26am 164 6 6 39 85 75.4 55.8 29.30 54.6 577 1109 521 -0.41 0.00 0.00 0.000
2:27am 208 2 6 39 85 75.4 55.8 29.30 55.8 577 1109 521 -0.40 0.00 0.00 0.000
2:28am 264 2 6 39 85 75.4 55.9 29.30 55.9 575 1109 525 -0.29 0.00 0.00 0.000
2:29am 185 2 6 39 85 75.4 55.9 29.30 55.9 576 1109 526 -0.29 0.00 0.00 0.000
2:30am 185 1 6 39 85 75.4 55.9 29.30 55.9 577 1109 528 -0.29 0.00 0.00 0.000
2:31am 185 1 2 39 85 75.4 56.0 29.30 56.0 579 1110 536 -0.18 0.00 0.00 0.000
2:32am 226 4 4 39 85 75.6 55.9 29.30 55.7 579 1109 530 -0.28 0.00 0.00 0.000
2:33am 178 1 4 39 84 75.6 56.0 29.30 56.0 580 1190 538 -0.17 0.00 0.00 0.000
2:34am 205 2 4 39 84 75.6 56.0 29.30 56.0 581 1190 539 -0.17 0.00 0.00 0.000
2:35am 205 0 4 39 84 75.6 56.0 29.30 56.0 580 1190 538 -0.17 0.00 0.00 0.000
2:36am 205 1 2 39 84 75.6 56.0 29.30 56.0 581 1190 539 -0.16 0.00 0.00 0.000
2:37am 202 4 8 39 84 75.6 56.0 29.30 55.8 581 1190 539 -0.16 0.00 0.00 0.000
2:38am 202 0 8 39 84 75.6 56.0 29.30 56.0 581 1190 539 -0.16 0.00 0.00 0.000
2:39am 202 1 8 39 84 75.6 56.0 29.30 56.0 580 1190 538 -0.16 0.00 0.00 0.000
2:40am 163 4 8 39 84 75.6 56.0 29.30 55.8 581 1190 539 -0.15 0.00 0.00 0.000
2:41am 194 2 4 39 84 75.6 56.0 29.30 56.0 581 1190 539 -0.15 0.00 0.00 0.000
2:42am 194 1 4 39 84 75.6 56.0 29.30 56.0 582 1190 540 -0.15 0.00 0.00 0.000
2:43am 189 1 5 39 84 75.6 56.0 29.30 56.0 581 1190 539 -0.15 0.00 0.00 0.000
2:44am 195 1 6 39 84 75.6 56.0 29.30 56.0 581 1190 539 -0.14 0.00 0.00 0.000
2:45am 195 0 6 39 84 75.6 56.0 29.30 56.0 581 1190 539 -0.14 0.00 0.00 0.000
2:46am 224 7 7 39 84 75.6 56.1 29.30 54.5 581 1190 545 -0.04 0.00 0.00 0.000
2:47am 182 3 7 39 84 75.6 56.1 29.30 56.1 581 1190 545 -0.04 0.00 0.00 0.000
2:48am 193 4 7 39 84 75.4 56.1 29.30 55.9 581 1190 545 -0.04 0.00 0.00 0.000
2:49am 251 4 7 39 84 75.4 56.1 29.30 55.9 580 1190 544 -0.04 0.00 0.00 0.000
2:50am 191 5 8 39 84 75.4 56.1 29.30 55.4 580 1190 544 -0.04 0.00 0.00 0.000
2:51am 217 4 5 39 84 75.4 56.2 29.30 56.0 581 1191 552 0.06 0.00 0.00 0.000
2:52am 251 1 5 39 84 75.4 56.3 29.30 56.3 581 1191 559 0.16 0.00 0.00 0.000
2:53am 217 3 5 39 83 75.4 56.3 29.30 56.3 581 1272 559 0.16 0.00 0.00 0.000
2:54am 187 4 5 39 83 75.4 56.4 29.30 56.3 581 1273 565 0.26 0.00 0.00 0.000
2:55am 180 3 7 39 83 75.4 56.4 29.30 56.4 581 1273 565 0.25 0.00 0.00 0.000
2:56am 199 9 9 39 83 75.6 56.4 29.30 54.3 582 1273 566 0.25 0.00 0.00 0.000
2:57am 172 6 9 39 83 75.6 56.5 29.30 55.4 582 1273 573 0.34 0.00 0.00 0.000
2:58am 160 6 9 39 83 75.6 56.4 29.30 55.3 582 1273 566 0.24 0.00 0.00 0.000
2:59am 162 3 9 40 83 75.6 56.5 29.30 56.5 582 1273 573 0.33 0.00 0.00 0.000
3:00am 222 4 9 39 83 75.6 56.5 29.30 56.4 582 1273 573 0.33 0.00 0.00 0.000
3:01am 162 4 9 39 83 75.6 56.6 29.30 56.5 582 1274 579 0.42 0.00 0.00 0.000
3:02am 167 3 9 39 83 75.6 56.5 29.30 56.5 582 1273 573 0.31 0.00 0.00 0.000
3:03am 186 4 9 39 82 75.6 56.6 29.30 56.5 582 1356 579 0.41 0.00 0.00 0.000
3:04am 267 2 9 39 82 75.6 56.6 29.30 56.6 582 1356 579 0.40 0.00 0.00 0.000
3:05am 202 3 9 39 82 75.6 56.6 29.30 56.6 582 1356 579 0.40 0.00 0.00 0.000
3:06am 199 3 8 39 82 75.6 56.6 29.30 56.6 582 1356 579 0.39 0.00 0.00 0.000
3:07am 174 3 8 39 82 75.6 56.6 29.30 56.6 582 1356 579 0.39 0.00 0.00 0.000
3:08am 199 2 8 39 82 75.6 56.6 29.30 56.6 583 1356 581 0.38 0.00 0.00 0.000
3:09am 251 7 10 39 82 75.6 56.6 29.30 55.1 583 1356 581 0.37 0.00 0.00 0.000
3:10am 222 5 10 39 82 75.6 56.6 29.30 56.0 583 1356 581 0.37 0.00 0.00 0.000
3:11am 268 1 5 39 82 75.6 56.6 29.30 56.6 583 1356 581 0.36 0.00 0.00 0.000
3:12am 209 3 5 39 82 75.6 56.6 29.30 56.6 583 1356 581 0.36 0.00 0.00 0.000
3:13am 210 4 5 39 82 75.6 56.6 29.30 56.5 582 1356 579 0.35 0.00 0.00 0.000
3:14am 179 7 9 39 81 75.6 56.6 29.30 55.1 582 1439 579 0.34 0.00 0.00 0.000
3:15am 177 0 9 39 81 75.6 56.6 29.30 56.6 582 1439 579 0.34 0.00 0.00 0.000
3:16am 163 5 5 39 81 75.6 56.6 29.30 56.0 582 1439 579 0.33 0.00 0.00 0.000
3:17am 264 2 6 39 81 75.6 56.6 29.30 56.6 583 1439 581 0.33 0.00 0.00 0.000
3:18am 133 3 7 40 81 75.6 56.6 29.30 56.6 582 1439 579 0.32 0.00 0.00 0.000
3:19am 220 2 7 39 81 75.6 56.6 29.30 56.6 583 1439 581 0.32 0.00 0.00 0.000
3:20am 226 3 7 39 81 75.6 56.6 29.30 56.6 582 1439 579 0.31 0.00 0.00 0.000
3:21am 172 4 6 39 81 75.6 56.6 29.30 56.5 582 1439 579 0.31 0.00 0.00 0.000
3:22am 220 3 7 39 80 75.6 56.7 29.30 56.7 582 1523 586 0.40 0.00 0.00 0.000
3:23am 177 2 7 39 80 75.6 56.7 29.30 56.7 582 1523 586 0.39 0.00 0.00 0.000
3:24am 191 2 7 39 80 75.6 56.7 29.30 56.7 582 1523 586 0.39 0.00 0.00 0.000
3:25am 198 3 7 39 79 75.6 56.7 29.30 56.7 582 1608 586 0.38 0.00 0.00 0.000
3:26am 194 3 4 39 80 75.6 56.7 29.30 56.7 582 1523 586 0.37 0.00 0.00 0.000
3:27am 204 1 5 39 80 75.6 56.7 29.30 56.7 582 1523 586 0.37 0.00 0.00 0.000
3:28am 226 1 5 39 80 75.6 56.7 29.30 56.7 581 1523 585 0.36 0.00 0.00 0.000
3:29am 172 2 8 39 80 75.6 56.7 29.30 56.7 581 1523 585 0.35 0.00 0.00 0.000
3:30am 151 3 8 39 80 75.6 56.8 29.30 56.8 582 1524 593 0.45 0.00 0.00 0.000
3:31am 208 3 5 39 79 75.6 56.7 29.30 56.7 582 1608 586 0.34 0.00 0.00 0.000
3:32am 208 1 5 39 79 75.6 56.8 29.30 56.8 582 1608 593 0.43 0.00 0.00 0.000
3:33am 203 3 6 39 80 75.6 56.7 29.30 56.7 582 1523 586 0.33 0.00 0.00 0.000
3:34am 203 2 6 39 79 75.6 56.7 29.30 56.7 582 1608 586 0.32 0.00 0.00 0.000
3:35am 219 4 6 39 79 75.6 56.7 29.30 56.6 582 1608 586 0.32 0.00 0.00 0.000
3:36am 163 2 6 39 79 75.6 56.7 29.30 56.7 582 1608 586 0.31 0.00 0.00 0.000
3:37am 243 4 7 39 79 75.6 56.7 29.30 56.6 582 1608 586 0.31 0.00 0.00 0.000
3:38am 213 3 7 39 79 75.6 56.7 29.30 56.7 582 1608 586 0.30 0.00 0.00 0.000
3:39am 213 3 7 39 79 75.6 56.7 29.30 56.7 582 1608 586 0.29 0.00 0.00 0.000
3:40am 113 2 7 39 79 75.6 56.8 29.30 56.8 582 1608 593 0.39 0.00 0.00 0.000
3:41am 193 3 5 39 79 75.6 56.7 29.30 56.7 582 1608 586 0.28 0.00 0.00 0.000
3:42am 172 2 5 39 78 75.6 56.7 29.30 56.7 581 1693 585 0.28 0.00 0.00 0.000
3:43am 213 4 6 39 79 75.6 56.8 29.30 56.7 582 1608 593 0.37 0.00 0.00 0.000
3:44am 220 2 6 39 79 75.6 56.7 29.30 56.7 582 1608 586 0.27 0.00 0.00 0.000
3:45am 219 3 6 39 79 75.6 56.8 29.30 56.8 581 1608 591 0.36 0.00 0.00 0.000
3:46am 237 3 5 39 79 75.6 56.7 29.30 56.7 582 1608 586 0.26 0.00 0.00 0.000
3:47am 202 3 5 39 78 75.6 56.7 29.30 56.7 581 1693 585 0.25 0.00 0.00 0.000
3:48am 201 1 5 39 78 75.6 56.7 29.30 56.7 581 1693 585 0.25 0.00 0.00 0.000
3:49am 201 1 5 39 78 75.6 56.6 29.30 56.6 581 1693 578 0.15 0.00 0.00 0.000
3:50am 201 1 5 39 79 75.6 56.7 29.30 56.7 582 1608 586 0.24 0.00 0.00 0.000
3:51am 233 4 4 39 78 75.6 56.6 29.30 56.5 581 1693 578 0.14 0.00 0.00 0.000
3:52am 193 3 5 39 78 75.6 56.6 29.30 56.6 582 1693 579 0.14 0.00 0.00 0.000
3:53am 196 1 5 39 78 75.6 56.6 29.30 56.6 582 1693 579 0.14 0.00 0.00 0.000
3:54am 196 0 5 39 78 75.6 56.6 29.30 56.6 582 1693 579 0.13 0.00 0.00 0.000
3:55am 196 1 5 39 78 75.6 56.6 29.30 56.6 582 1693 579 0.13 0.00 0.00 0.000
3:56am 196 1 2 39 78 75.6 56.6 29.30 56.6 582 1693 579 0.13 0.00 0.00 0.000
3:57am 188 2 4 39 79 75.6 56.6 29.30 56.6 581 1607 578 0.13 0.00 0.00 0.000
3:58am 242 3 4 39 78 75.6 56.6 29.30 56.6 581 1693 578 0.13 0.00 0.00 0.000
3:59am 239 1 4 39 78 75.6 56.5 29.30 56.5 581 1692 572 0.02 0.00 0.00 0.000
4:00am 239 2 4 39 78 75.6 56.5 29.30 56.5 581 1692 572 0.02 0.00 0.00 0.000
4:01am 243 2 3 39 78 75.6 56.5 29.30 56.5 581 1692 572 0.02 0.00 0.00 0.000
4:02am 242 3 3 39 78 75.6 56.5 29.30 56.5 581 1692 572 0.02 0.00 0.00 0.000
4:03am 239 1 3 39 78 75.6 56.4 29.30 56.4 581 1691 565 -0.08 0.00 0.00 0.000
4:04am 182 1 3 39 78 75.6 56.4 29.30 56.4 581 1691 565 -0.08 0.00 0.00 0.000
4:05am 184 1 3 39 78 75.6 56.4 29.30 56.4 581 1691 565 -0.08 0.00 0.00 0.000
4:06am 184 1 2 39 78 75.6 56.4 29.30 56.4 581 1691 565 -0.08 0.00 0.00 0.000
4:07am 184 1 2 39 78 75.6 56.4 29.30 56.4 582 1691 566 -0.07 0.00 0.00 0.000
4:08am 184 1 2 39 78 75.6 56.4 29.30 56.4 581 1691 565 -0.07 0.00 0.00 0.000
4:09am 184 0 2 39 78 75.6 56.4 29.30 56.4 582 1691 566 -0.07 0.00 0.00 0.000
4:10am 184 1 2 39 78 75.6 56.3 29.30 56.3 582 1690 560 -0.17 0.00 0.00 0.000
4:11am 181 2 4 39 77 75.6 56.4 29.30 56.4 582 1778 566 -0.07 0.00 0.00 0.000
4:12am 208 5 6 39 77 75.6 56.3 29.30 55.6 582 1777 560 -0.16 0.00 0.00 0.000
4:13am 183 1 7 39 77 75.6 56.3 29.30 56.3 582 1777 560 -0.16 0.00 0.00 0.000
4:14am 183 2 7 39 77 75.6 56.4 29.30 56.4 583 1778 567 -0.06 0.00 0.00 0.000
4:15am 198 0 7 39 77 75.6 56.4 29.30 56.4 583 1778 567 -0.06 0.00 0.00 0.000
4:16am 198 2 2 39 77 75.6 56.3 29.29 56.3 584 1777 562 -0.16 0.00 0.00 0.000
4:17am 190 4 8 39 76 75.6 56.4 29.29 56.3 584 1865 570 -0.05 0.00 0.00 0.000
4:18am 161 1 8 39 77 75.6 56.4 29.29 56.4 585 1778 571 -0.05 0.00 0.00 0.000
4:19am 161 0 8 39 76 75.6 56.4 29.29 56.4 586 1865 572 -0.05 0.00 0.00 0.000
4:20am 161 0 8 39 77 75.6 56.4 29.29 56.4 585 1778 571 -0.05 0.00 0.00 0.000
4:21am 216 2 5 39 77 75.6 56.4 29.29 56.4 585 1778 571 -0.05 0.00 0.00 0.000
4:22am 243 1 5 39 76 75.6 56.4 29.29 56.4 584 1865 570 -0.05 0.00 0.00 0.000
4:23am 239 3 5 39 76 75.6 56.4 29.29 56.4 584 1865 569 -0.05 0.00 0.00 0.000
4:24am 239 2 5 39 76 75.6 56.4 29.29 56.4 584 1865 569 -0.05 0.00 0.00 0.000
4:25am 239 0 5 39 77 75.6 56.4 29.29 56.4 584 1778 570 -0.05 0.00 0.00 0.000
4:26am 239 2 2 39 77 75.6 56.3 29.29 56.3 584 1777 562 -0.15 0.00 0.00 0.000
4:27am 253 1 5 39 76 75.6 56.3 29.29 56.3 584 1864 562 -0.15 0.00 0.00 0.000
4:28am 177 2 5 39 77 75.6 56.4 29.30 56.4 583 1778 567 -0.04 0.00 0.00 0.000
4:29am 178 1 5 39 77 75.6 56.3 29.30 56.3 583 1777 561 -0.14 0.00 0.00 0.000
4:30am 178 1 5 39 76 75.6 56.2 29.30 56.2 583 1863 554 -0.24 0.00 0.00 0.000
4:31am 178 2 2 39 76 75.6 56.3 29.30 56.3 583 1864 561 -0.14 0.00 0.00 0.000
4:32am 162 1 5 39 76 75.6 56.3 29.30 56.3 583 1864 561 -0.13 0.00 0.00 0.000
4:33am 188 5 5 39 76 75.6 56.2 29.30 55.5 583 1863 554 -0.23 0.00 0.00 0.000
4:34am 214 2 7 39 75 75.6 56.2 29.30 56.2 583 1952 554 -0.23 0.00 0.00 0.000
4:35am 213 2 7 39 75 75.6 56.2 29.30 56.2 583 1952 554 -0.23 0.00 0.00 0.000
4:36am 213 0 2 39 76 75.6 56.3 29.30 56.3 583 1864 561 -0.12 0.00 0.00 0.000
4:37am 214 3 3 39 76 75.6 56.3 29.29 56.3 584 1864 562 -0.12 0.00 0.00 0.000
4:38am 214 0 3 39 76 75.6 56.3 29.29 56.3 584 1864 562 -0.12 0.00 0.00 0.000
4:39am 210 1 3 39 76 75.6 56.2 29.29 56.2 586 1863 559 -0.22 0.00 0.00 0.000
4:40am 210 0 3 39 76 75.6 56.3 29.29 56.3 586 1864 565 -0.12 0.00 0.00 0.000
4:41am 210 1 1 39 76 75.6 56.3 29.29 56.3 588 1864 568 -0.11 0.00 0.00 0.000
4:42am 210 2 3 39 76 75.6 56.2 29.29 56.2 589 1863 562 -0.21 0.00 0.00 0.000
4:43am 231 1 5 39 76 75.6 56.2 29.29 56.2 590 1863 563 -0.21 0.00 0.00 0.000
4:44am 165 0 5 39 75 75.6 56.2 29.29 56.2 590 1952 563 -0.20 0.00 0.00 0.000
4:45am 165 1 5 39 76 75.6 56.2 29.29 56.2 589 1863 562 -0.20 0.00 0.00 0.000
4:46am 165 1 1 39 76 75.6 56.2 29.29 56.2 589 1863 562 -0.20 0.00 0.00 0.000
4:47am 165 1 2 39 76 75.6 56.2 29.29 56.2 588 1863 561 -0.19 0.00 0.00 0.000
4:48am 193 4 5 39 76 75.6 56.2 29.29 56.0 589 1863 562 -0.19 0.00 0.00 0.000
4:49am 194 3 5 39 75 75.6 56.2 29.29 56.2 589 1952 562 -0.19 0.00 0.00 0.000
4:50am 199 0 5 39 75 75.6 56.1 29.29 56.1 591 1951 558 -0.28 0.00 0.00 0.000
4:51am 199 0 3 39 76 75.6 56.2 29.29 56.2 591 1863 564 -0.18 0.00 0.00 0.000
4:52am 199 2 3 40 76 75.6 56.2 29.28 56.2 593 1863 567 -0.17 0.00 0.00 0.000
4:53am 152 0 4 39 75 75.4 56.1 29.28 56.1 593 1951 560 -0.27 0.00 0.00 0.000
4:54am 204 1 4 39 75 75.4 56.1 29.28 56.1 594 1951 561 -0.26 0.00 0.00 0.000
4:55am 204 0 4 39 75 75.6 56.1 29.28 56.1 594 1951 561 -0.26 0.00 0.00 0.000
4:56am 232 3 4 39 75 75.6 56.1 29.28 56.1 594 1951 561 -0.26 0.00 0.00 0.000
4:57am 232 1 4 39 75 75.4 56.1 29.28 56.1 595 1951 562 -0.25 0.00 0.00 0.000
4:58am 220 2 4 39 75 75.4 56.1 29.28 56.1 594 1951 561 -0.25 0.00 0.00 0.000
4:59am 220 2 4 39 75 75.4 56.2 29.28 56.2 595 1952 569 -0.15 0.00 0.00 0.000
5:00am 220 0 4 39 75 75.4 56.2 29.28 56.2 595 1952 569 -0.15 0.00 0.00 0.000
5:01am 220 3 3 39 75 75.6 56.1 29.28 56.1 596 1951 564 -0.24 0.00 0.00 0.000
5:02am 161 2 5 39 75 75.6 56.1 29.28 56.1 596 1951 564 -0.24 0.00 0.00 0.000
5:03am 179 0 5 39 75 75.6 56.2 29.28 56.2 596 1952 570 -0.14 0.00 0.00 0.000
5:04am 179 0 5 39 75 75.6 56.2 29.28 56.2 596 1952 570 -0.13 0.00 0.00 0.000
5:05am 179 0 5 39 76 75.6 56.2 29.28 56.2 596 1863 570 -0.13 0.00 0.00 0.000
5:06am 179 2 3 39 76 75.6 56.1 29.28 56.1 596 1863 565 -0.23 0.00 0.00 0.000
5:07am 179 2 3 39 76 75.6 56.1 29.28 56.1 596 1863 565 -0.22 0.00 0.00 0.000
5:08am 181 1 3 39 76 75.6 56.1 29.28 56.1 598 1863 567 -0.22 0.00 0.00 0.000
5:09am 183 2 3 39 76 75.6 56.1 29.28 56.1 598 1863 567 -0.22 0.00 0.00 0.000
5:10am 162 2 3 39 76 75.6 56.0 29.28 56.0 599 1862 562 -0.31 0.00 0.00 0.000
5:11am 162 0 2 39 75 75.6 56.1 29.28 56.1 599 1951 568 -0.21 0.00 0.00 0.000
5:12am 162 1 2 39 76 75.6 56.1 29.28 56.1 599 1863 568 -0.20 0.00 0.00 0.000
5:13am 162 0 3 39 75 75.6 56.0 29.28 56.0 599 1950 562 -0.30 0.00 0.00 0.000
5:14am 160 1 3 39 75 75.4 56.0 29.28 56.0 599 1950 562 -0.29 0.00 0.00 0.000
5:15am 160 1 3 39 75 75.4 56.0 29.28 56.0 598 1950 560 -0.29 0.00 0.00 0.000
5:16am 160 1 1 39 75 75.4 56.1 29.28 56.1 598 1951 567 -0.19 0.00 0.00 0.000
5:17am 160 0 1 39 75 75.4 56.0 29.28 56.0 598 1950 560 -0.28 0.00 0.00 0.000
5:18am 160 0 1 39 75 75.4 56.0 29.28 56.0 598 1950 560 -0.28 0.00 0.00 0.000
5:19am 160 1 1 39 75 75.4 56.0 29.28 56.0 598 1950 560 -0.27 0.00 0.00 0.000
5:20am 160 1 1 39 75 75.4 56.0 29.28 56.0 598 1950 560 -0.27 0.00 0.00 0.000
5:21am 172 1 3 39 75 75.4 56.0 29.28 56.0 598 1950 560 -0.27 0.00 0.00 0.000
5:22am 172 1 3 39 75 75.4 56.0 29.28 56.0 597 1950 559 -0.26 0.00 0.00 0.000
5:23am 172 1 3 39 75 75.4 56.0 29.28 56.0 598 1950 560 -0.26 0.00 0.00 0.000
5:24am 172 2 3 39 76 75.4 56.0 29.28 56.0 597 1862 559 -0.25 0.00 0.00 0.000
5:25am 172 1 3 39 76 75.4 56.0 29.28 56.0 597 1862 559 -0.25 0.00 0.00 0.000
5:26am 172 2 2 39 76 75.4 56.0 29.28 56.0 597 1862 559 -0.24 0.00 0.00 0.000
5:27am 171 2 3 39 76 75.4 55.9 29.28 55.9 597 1861 553 -0.34 0.00 0.00 0.000
5:28am 171 0 3 39 76 75.4 55.9 29.28 55.9 597 1861 553 -0.33 0.00 0.00 0.000
5:29am 171 1 3 39 77 75.4 55.9 29.28 55.9 597 1774 553 -0.33 0.00 0.00 0.000
5:30am 171 1 3 39 77 75.4 55.9 29.28 55.9 596 1774 552 -0.32 0.00 0.00 0.000
5:31am 171 2 2 39 77 75.4 55.8 29.28 55.8 597 1773 546 -0.41 0.00 0.00 0.000
5:32am 172 1 2 39 77 75.4 55.7 29.28 55.7 597 1772 539 -0.51 0.00 0.00 0.000
5:33am 172 2 3 39 76 75.4 55.7 29.28 55.7 598 1859 541 -0.50 0.00 0.00 0.000
5:34am 172 1 3 39 76 75.4 55.7 29.28 55.7 598 1859 541 -0.49 0.00 0.00 0.000
5:35am 172 1 3 39 76 75.4 55.7 29.28 55.7 598 1859 541 -0.48 0.00 0.00 0.000
5:36am 172 2 2 39 76 75.4 55.7 29.28 55.7 599 1859 542 -0.47 0.00 0.00 0.000
5:37am 172 0 2 39 76 75.4 55.7 29.28 55.7 600 1859 543 -0.47 0.00 0.00 0.000
5:38am 172 0 2 39 76 75.4 55.7 29.28 55.7 600 1859 543 -0.46 0.00 0.00 0.000
5:39am 216 3 4 39 76 75.4 55.7 29.28 55.7 600 1859 543 -0.45 0.00 0.00 0.000
5:40am 217 0 4 39 76 75.4 55.7 29.28 55.7 600 1859 543 -0.44 0.00 0.00 0.000
5:41am 217 0 0 39 76 75.4 55.7 29.28 55.7 600 1859 543 -0.44 0.00 0.00 0.000
5:42am 198 2 5 39 77 75.4 55.7 29.28 55.7 599 1772 542 -0.43 0.00 0.00 0.000
5:43am 198 1 5 39 77 75.4 55.7 29.28 55.7 600 1772 543 -0.42 0.00 0.00 0.000
5:44am 198 0 5 39 77 75.4 55.7 29.28 55.7 600 1772 543 -0.42 0.00 0.00 0.000
5:45am 198 1 5 39 78 75.4 55.7 29.28 55.7 600 1686 543 -0.41 0.00 0.00 0.000
5:46am 198 2 2 39 77 75.4 55.7 29.28 55.7 599 1772 542 -0.40 0.00 0.00 0.000
5:47am 198 0 2 39 77 75.4 55.6 29.28 55.6 599 1771 535 -0.49 0.00 0.00 0.000
5:48am 198 1 2 39 77 75.4 55.6 29.28 55.6 599 1771 535 -0.49 0.00 0.00 0.000
5:49am 199 2 3 39 77 75.4 55.6 29.28 55.6 599 1771 535 -0.48 0.00 0.00 0.000
5:50am 199 0 3 39 77 75.4 55.6 29.28 55.6 598 1771 534 -0.47 0.00 0.00 0.000
5:51am 199 1 1 39 77 75.4 55.5 29.28 55.5 598 1771 527 -0.56 0.00 0.00 0.000
5:52am 199 0 1 39 77 75.4 55.5 29.28 55.5 598 1771 527 -0.55 0.00 0.00 0.000
5:53am 199 0 1 39 77 75.4 55.5 29.28 55.5 598 1771 527 -0.54 0.00 0.00 0.000
5:54am 199 1 1 39 78 75.4 55.5 29.28 55.5 598 1685 527 -0.53 0.00 0.00 0.000
5:55am 199 1 2 39 77 75.4 55.5 29.28 55.5 597 1771 526 -0.53 0.00 0.00 0.000
5:56am 199 1 1 39 77 75.4 55.5 29.28 55.5 596 1771 525 -0.52 0.00 0.00 0.000
5:57am 199 2 2 39 77 75.4 55.5 29.28 55.5 596 1771 525 -0.51 0.00 0.00 0.000
5:58am 268 2 4 39 77 75.4 55.5 29.28 55.5 596 1771 525 -0.50 0.00 0.00 0.000
5:59am 268 0 4 39 77 75.4 55.5 29.28 55.5 596 1771 525 -0.49 0.00 0.00 0.000
6:00am 268 1 4 39 78 75.4 55.5 29.28 55.5 597 1685 526 -0.48 0.00 0.00 0.000
6:01am 268 1 1 39 77 75.4 55.6 29.28 55.6 597 1771 533 -0.38 0.00 0.00 0.000
6:02am 268 0 1 39 77 75.4 55.6 29.28 55.6 597 1771 533 -0.37 0.00 0.00 0.000
6:03am 268 0 1 39 77 75.4 55.6 29.28 55.6 597 1771 533 -0.36 0.00 0.00 0.000
6:04am 268 0 2 39 78 75.4 55.6 29.28 55.6 597 1685 533 -0.36 0.00 0.00 0.000
6:05am 268 0 2 39 78 75.4 55.6 29.28 55.6 597 1685 533 -0.35 0.00 0.00 0.000
6:06am 267 1 2 39 78 75.4 55.5 29.28 55.5 597 1685 526 -0.45 0.00 0.00 0.000
6:07am 267 2 2 39 78 75.4 55.5 29.28 55.5 597 1685 526 -0.44 0.00 0.00 0.000
6:08am 267 0 2 39 78 75.6 55.6 29.28 55.6 597 1685 533 -0.33 0.00 0.00 0.000
6:09am 239 1 2 39 77 75.6 55.7 29.28 55.7 597 1772 539 -0.23 0.00 0.00 0.000
6:10am 239 0 2 39 77 75.6 55.7 29.28 55.7 596 1772 538 -0.22 0.00 0.00 0.000
6:11am 239 0 3 39 77 75.6 55.7 29.28 55.7 596 1772 538 -0.22 0.00 0.00 0.000
6:12am 208 3 3 39 77 75.4 55.7 29.28 55.7 597 1772 539 -0.22 0.00 0.00 0.000
6:13am 208 1 3 39 77 75.4 55.7 29.28 55.7 596 1772 538 -0.21 0.00 0.00 0.000
6:14am 208 1 3 39 77 75.4 55.7 29.28 55.7 597 1772 539 -0.21 0.00 0.00 0.000
6:15am 208 0 3 39 78 75.4 55.7 29.28 55.7 596 1686 538 -0.21 0.00 0.00 0.000
6:16am 208 0 1 39 77 75.4 55.7 29.28 55.7 596 1772 538 -0.20 0.00 0.00 0.000
6:17am 190 1 2 39 77 75.4 55.7 29.28 55.7 596 1772 538 -0.20 0.00 0.00 0.000
6:18am 190 0 2 39 78 75.4 55.7 29.28 55.7 596 1686 538 -0.20 0.00 0.00 0.000
6:19am 190 0 2 39 78 75.4 55.7 29.28 55.7 596 1686 538 -0.19 0.00 0.00 0.000
6:20am 191 4 5 39 78 75.4 55.7 29.28 55.5 596 1686 537 -0.19 0.00 0.00 0.000
6:21am 192 0 4 39 78 75.4 55.8 29.28 55.8 596 1687 544 -0.09 0.00 0.00 0.000
6:22am 222 1 4 39 78 75.4 55.8 29.28 55.8 596 1687 544 -0.09 0.00 0.00 0.000
6:23am 214 1 4 39 78 75.4 55.9 29.28 55.9 595 1687 549 0.01 0.00 0.00 0.000
6:24am 214 2 4 39 78 75.4 55.9 29.28 55.9 595 1687 549 0.01 0.00 0.00 0.000
6:25am 214 0 4 39 78 75.4 55.9 29.28 55.9 594 1687 548 0.01 0.00 0.00 0.000
6:26am 214 1 2 39 78 75.4 55.9 29.28 55.9 594 1687 548 0.01 0.00 0.00 0.000
6:27am 213 1 3 39 78 75.4 55.9 29.28 55.9 595 1687 549 0.01 0.00 0.00 0.000
6:28am 212 3 4 39 78 75.4 55.9 29.28 55.9 595 1687 549 0.01 0.00 0.00 0.000
6:29am 202 1 4 39 78 75.4 56.0 29.28 56.0 594 1688 555 0.11 0.00 0.00 0.000
6:30am 202 2 4 39 78 75.4 56.0 29.28 56.0 595 1688 556 0.11 0.00 0.00 0.000
6:31am 202 0 2 39 78 75.4 56.0 29.28 56.0 595 1688 556 0.11 0.00 0.00 0.000
6:32am 202 0 2 39 78 75.4 56.0 29.28 56.0 594 1688 555 0.10 0.00 0.00 0.000
6:33am 202 0 2 39 78 75.4 56.0 29.28 56.0 594 1688 555 0.10 0.00 0.00 0.000
6:34am 202 1 2 39 78 75.4 56.0 29.28 56.0 594 1688 555 0.10 0.00 0.00 0.000
6:35am 202 0 2 39 79 75.4 56.0 29.28 56.0 594 1603 555 0.10 0.00 0.00 0.000
6:36am 202 0 1 39 79 75.4 56.1 29.28 56.1 593 1604 560 0.20 0.00 0.00 0.000
6:37am 202 1 1 39 79 75.4 56.0 29.28 56.0 593 1603 554 0.10 0.00 0.00 0.000
6:38am 202 1 2 39 79 75.4 56.1 29.29 56.1 592 1604 559 0.19 0.00 0.00 0.000
6:39am 201 3 4 39 79 75.4 56.0 29.28 56.0 593 1603 554 0.09 0.00 0.00 0.000
6:40am 202 0 4 39 79 75.4 56.1 29.28 56.1 593 1604 560 0.19 0.00 0.00 0.000
6:41am 152 5 5 39 79 75.4 56.1 29.29 55.4 592 1604 559 0.19 0.00 0.00 0.000
6:42am 152 1 5 39 79 75.4 56.1 29.29 56.1 592 1604 559 0.18 0.00 0.00 0.000
6:43am 152 0 5 39 79 75.4 56.1 29.28 56.1 593 1604 560 0.18 0.00 0.00 0.000
6:44am 152 0 5 39 79 75.4 56.2 29.28 56.2 593 1604 567 0.28 0.00 0.00 0.000
6:45am 152 0 5 40 79 75.4 56.2 29.28 56.2 594 1604 568 0.27 0.00 0.00 0.000
6:46am 152 2 3 39 79 75.4 56.2 29.28 56.2 594 1604 568 0.27 0.00 0.00 0.000
6:47am 177 4 4 39 80 75.4 56.2 29.28 56.0 594 1520 568 0.26 0.00 0.00 0.000
6:48am 177 1 4 39 79 75.4 56.2 29.28 56.2 593 1604 567 0.26 0.00 0.00 0.000
6:49am 177 0 4 39 80 75.4 56.3 29.28 56.3 593 1520 573 0.35 0.00 0.00 0.000
6:50am 178 2 4 39 79 75.4 56.3 29.28 56.3 593 1605 573 0.35 0.00 0.00 0.000
6:51am 173 5 5 39 80 75.4 56.3 29.28 55.6 593 1520 573 0.34 0.00 0.00 0.000
6:52am 176 1 5 39 80 75.4 56.3 29.28 56.3 593 1520 573 0.34 0.00 0.00 0.000
6:53am 333 0 5 39 80 75.4 56.3 29.28 56.3 593 1520 573 0.33 0.00 0.00 0.000
6:54am 333 0 5 39 80 75.4 56.4 29.28 56.4 594 1521 581 0.43 0.00 0.00 0.000
6:55am 333 0 5 39 80 75.4 56.4 29.28 56.4 594 1521 581 0.42 0.00 0.00 0.000
6:56am 333 1 2 39 80 75.4 56.3 29.28 56.3 594 1520 575 0.31 0.00 0.00 0.000
6:57am 333 0 2 39 80 75.4 56.3 29.28 56.3 594 1520 575 0.31 0.00 0.00 0.000
6:58am 310 1 3 39 80 75.4 56.4 29.28 56.4 594 1521 581 0.40 0.00 0.00 0.000
6:59am 190 4 6 39 80 75.4 56.4 29.28 56.3 594 1521 581 0.40 0.00 0.00 0.000
7:00am 174 2 6 39 81 75.4 56.4 29.28 56.4 594 1437 581 0.39 0.00 0.00 0.000
7:01am 166 0 5 39 81 75.4 56.4 29.28 56.4 594 1437 581 0.38 0.00 0.00 0.000
7:02am 293 2 5 39 81 75.4 56.4 29.28 56.4 593 1437 580 0.38 0.00 0.00 0.000
7:03am 226 2 5 39 81 75.4 56.4 29.29 56.4 591 1437 578 0.37 0.00 0.00 0.000
7:04am 219 1 5 39 81 75.4 56.5 29.29 56.5 590 1438 583 0.46 0.00 0.00 0.000
7:05am 219 1 5 39 81 75.4 56.5 29.29 56.5 589 1438 582 0.46 0.00 0.00 0.000
7:06am 219 2 2 39 81 75.4 56.5 29.29 56.5 588 1438 581 0.45 0.00 0.00 0.000
7:07am 220 1 3 39 81 75.4 56.5 29.29 56.5 588 1438 581 0.44 0.00 0.00 0.000
7:08am 218 1 3 39 81 75.4 56.6 29.29 56.6 588 1439 587 0.53 0.00 0.00 0.000
7:09am 201 2 5 39 81 75.4 56.5 29.29 56.5 588 1438 581 0.43 0.00 0.00 0.000
7:10am 168 5 8 39 82 75.4 56.6 29.29 56.0 588 1356 587 0.52 0.00 0.00 0.000
7:11am 264 2 5 39 82 75.4 56.6 29.29 56.6 588 1356 587 0.51 0.00 0.00 0.000
7:12am 253 2 5 39 82 75.4 56.7 29.29 56.7 588 1356 594 0.60 0.00 0.00 0.000
7:13am 162 5 8 39 82 75.4 56.7 29.29 56.1 587 1356 593 0.59 0.00 0.00 0.000
7:14am 259 2 8 39 82 75.4 56.8 29.29 56.8 587 1357 599 0.68 0.00 0.00 0.000
7:15am 259 2 8 39 82 75.4 56.8 29.29 56.8 587 1357 599 0.67 0.00 0.00 0.000
7:16am 210 0 3 39 82 75.4 56.9 29.29 56.9 589 1358 608 0.76 0.00 0.00 0.000
7:17am 173 4 4 39 82 75.4 56.9 29.29 56.8 588 1358 607 0.74 0.00 0.00 0.000
7:18am 172 2 5 39 83 75.4 56.9 29.29 56.9 589 1275 608 0.73 0.00 0.00 0.000
7:19am 172 2 5 39 83 75.4 56.9 29.29 56.9 588 1275 607 0.72 0.00 0.00 0.000
7:20am 237 3 5 39 83 75.4 56.9 29.29 56.9 587 1275 606 0.71 0.00 0.00 0.000
7:21am 178 2 4 39 83 75.4 57.0 29.29 57.0 588 1276 614 0.79 0.00 0.00 0.000
7:22am 206 2 6 39 83 75.4 57.0 29.29 57.0 587 1276 613 0.78 0.00 0.00 0.000
7:23am 232 1 6 39 83 75.4 57.1 29.29 57.1 586 1277 618 0.87 0.00 0.00 0.000
7:24am 232 2 6 39 83 75.4 57.1 29.29 57.1 585 1277 617 0.85 0.00 0.00 0.000
7:25am 232 2 6 39 83 75.4 57.1 29.29 57.1 585 1277 617 0.84 0.00 0.00 0.000
7:26am 202 1 3 39 83 75.4 57.2 29.29 57.2 586 1277 625 0.92 0.00 0.00 0.000
7:27am 218 1 3 39 83 75.4 57.2 29.29 57.2 585 1277 624 0.91 0.00 0.00 0.000
7:28am 236 4 4 39 84 75.4 57.2 29.29 57.2 585 1196 624 0.89 0.00 0.00 0.000
7:29am 270 5 5 39 84 75.4 57.2 29.29 56.7 586 1196 625 0.88 0.00 0.00 0.000
7:30am 214 3 5 39 84 75.4 57.3 29.29 57.3 584 1196 628 0.96 0.00 0.00 0.000
7:31am 187 2 5 39 84 75.4 57.3 29.29 57.3 584 1196 628 0.95 0.00 0.00 0.000
7:32am 179 0 5 39 84 75.4 57.3 29.29 57.3 584 1196 628 0.93 0.00 0.00 0.000
7:33am 194 3 5 39 84 75.4 57.4 29.29 57.4 584 1197 634 1.02 0.00 0.00 0.000
7:34am 224 3 5 39 84 75.4 57.4 29.29 57.4 584 1197 634 1.00 0.00 0.00 0.000
7:35am 153 5 5 39 84 75.4 57.5 29.29 57.0 584 1197 641 1.08 0.00 0.00 0.000
7:36am 163 0 5 39 84 75.4 57.5 29.29 57.5 584 1197 641 1.06 0.00 0.00 0.000
7:37am 163 2 5 39 84 75.4 57.5 29.29 57.5 584 1197 641 1.05 0.00 0.00 0.000
7:38am 161 5 5 39 84 75.4 57.5 29.29 57.0 584 1197 641 1.03 0.00 0.00 0.000
7:39am 173 4 5 39 84 75.4 57.6 29.30 57.6 583 1198 646 1.11 0.00 0.00 0.000
7:40am 169 2 5 39 84 75.4 57.6 29.30 57.6 583 1198 646 1.09 0.00 0.00 0.000
7:41am 155 2 5 39 84 75.4 57.7 29.30 57.7 583 1198 653 1.17 0.00 0.00 0.000
7:42am 237 0 5 39 84 75.4 57.7 29.30 57.7 583 1198 653 1.15 0.00 0.00 0.000
7:43am 179 4 5 39 84 75.4 57.7 29.30 57.7 583 1198 653 1.13 0.00 0.00 0.000
7:44am 179 3 5 39 84 75.4 57.7 29.30 57.7 583 1198 653 1.12 0.00 0.00 0.000
7:45am 227 0 5 39 84 75.4 57.7 29.30 57.7 583 1198 653 1.10 0.00 0.00 0.000
7:46am 229 1 1 39 84 75.4 57.8 29.30 57.8 583 1199 660 1.18 0.00 0.00 0.000
7:47am 227 3 10 39 84 75.4 57.8 29.30 57.8 582 1199 658 1.16 0.00 0.00 0.000
7:48am 181 5 10 39 84 75.4 57.8 29.30 57.4 583 1199 660 1.14 0.00 0.00 0.000
7:49am 181 1 10 39 84 75.4 57.9 29.30 57.9 583 1199 666 1.22 0.00 0.00 0.000
7:50am 178 2 10 39 84 75.4 57.9 29.30 57.9 583 1199 666 1.20 0.00 0.00 0.000
7:51am 220 4 4 39 84 75.4 57.9 29.30 57.9 583 1199 666 1.18 0.00 0.00 0.000
7:52am 310 2 4 39 84 75.4 58.0 29.30 58.0 583 1200 673 1.26 0.00 0.00 0.000
7:53am 170 5 10 39 84 75.4 58.0 29.30 57.6 583 1200 673 1.24 0.00 0.00 0.000
7:54am 131 1 10 39 84 75.4 58.0 29.30 58.0 583 1200 673 1.22 0.00 0.00 0.000
7:55am 135 1 10 39 84 75.4 58.0 29.29 58.0 584 1200 674 1.20 0.00 0.00 0.000
7:56am 172 3 4 39 84 75.4 58.1 29.29 58.1 584 1201 680 1.28 0.00 0.00 0.000
7:57am 98 2 7 39 84 75.4 58.1 29.30 58.1 583 1201 679 1.26 0.00 0.00 0.000
7:58am 107 2 7 39 84 75.4 58.2 29.30 58.2 583 1201 686 1.34 0.00 0.00 0.000
7:59am 174 3 7 39 84 75.4 58.1 29.29 58.1 584 1201 680 1.22 0.00 0.00 0.000
8:00am 225 2 7 39 84 75.4 58.1 29.30 58.1 583 1201 679 1.19 0.00 0.00 0.000
8:01am 213 3 5 39 84 75.4 58.2 29.30 58.2 583 1201 686 1.27 0.00 0.00 0.000
8:02am 194 2 5 39 84 75.4 58.2 29.30 58.2 583 1201 686 1.25 0.00 0.00 0.000
8:03am 195 1 5 39 84 75.4 58.2 29.30 58.2 582 1201 685 1.23 0.00 0.00 0.000
8:04am 195 2 5 39 84 75.4 58.2 29.30 58.2 582 1201 685 1.21 0.00 0.00 0.000
8:05am 182 1 5 39 84 75.4 58.2 29.30 58.2 583 1201 686 1.19 0.00 0.00 0.000
8:06am 222 0 3 39 84 75.4 58.2 29.30 58.2 583 1201 686 1.17 0.00 0.00 0.000
8:07am 154 6 6 39 84 75.4 58.2 29.30 57.4 582 1201 685 1.15 0.00 0.00 0.000
8:08am 187 2 6 39 84 75.4 58.2 29.30 58.2 582 1201 685 1.13 0.00 0.00 0.000
8:09am 188 1 6 39 84 75.4 58.2 29.30 58.2 583 1201 686 1.12 0.00 0.00 0.000
8:10am 160 6 10 39 84 75.4 58.2 29.30 57.4 583 1201 686 1.10 0.00 0.00 0.000
8:11am 234 3 6 39 84 75.4 58.2 29.30 58.2 583 1201 686 1.08 0.00 0.00 0.000
8:12am 198 5 6 39 84 75.4 58.2 29.30 57.8 583 1201 686 1.06 0.00 0.00 0.000
8:13am 240 4 7 39 84 75.4 58.2 29.30 58.2 583 1201 686 1.04 0.00 0.00 0.000
8:14am 164 5 7 39 84 75.4 58.2 29.30 57.8 583 1201 686 1.02 0.00 0.00 0.000
8:15am 160 3 7 39 84 75.4 58.2 29.30 58.2 583 1201 686 1.01 0.00 0.00 0.000
8:16am 210 2 8 39 84 75.4 58.3 29.30 58.3 583 1202 692 1.09 0.00 0.00 0.000
8:17am 143 5 8 39 84 75.4 58.3 29.29 58.0 584 1202 694 1.07 0.00 0.00 0.000
8:18am 236 5 9 39 84 75.4 58.3 29.29 58.0 584 1202 694 1.06 0.00 0.00 0.000
8:19am 233 2 9 39 84 75.4 58.3 29.29 58.3 584 1202 694 1.04 0.00 0.00 0.000
8:20am 224 4 9 39 84 75.4 58.3 29.29 58.3 584 1202 694 1.02 0.00 0.00 0.000
8:21am 156 5 13 39 83 75.4 58.3 29.29 58.0 584 1283 694 1.00 0.00 0.00 0.000
8:22am 181 5 13 39 83 75.4 58.3 29.29 58.0 584 1283 694 0.99 0.00 0.00 0.000
8:23am 205 1 13 39 83 75.4 58.4 29.29 58.4 584 1284 700 1.07 0.00 0.00 0.000
8:24am 202 2 13 39 83 75.4 58.4 29.29 58.4 584 1284 700 1.05 0.00 0.00 0.000
8:25am 226 1 13 39 84 75.4 58.4 29.29 58.4 584 1202 700 1.04 0.00 0.00 0.000
8:26am 149 5 5 39 84 75.4 58.5 29.29 58.2 584 1203 707 1.12 0.00 0.00 0.000
8:27am 147 0 5 39 84 75.4 58.5 29.29 58.5 584 1203 707 1.10 0.00 0.00 0.000
8:28am 147 6 6 39 84 75.4 58.5 29.29 57.8 584 1203 707 1.08 0.00 0.00 0.000
8:29am 210 6 7 39 83 75.4 58.5 29.29 57.8 584 1284 707 1.06 0.00 0.00 0.000
8:30am 267 1 7 39 83 75.4 58.6 29.29 58.6 584 1285 713 1.15 0.00 0.00 0.000
8:31am 267 2 2 39 84 75.4 58.6 29.30 58.6 583 1203 712 1.13 0.00 0.00 0.000
8:32am 232 0 3 39 84 75.4 58.6 29.30 58.6 583 1203 712 1.11 0.00 0.00 0.000
8:33am 294 3 3 39 84 75.4 58.7 29.30 58.7 583 1204 719 1.19 0.00 0.00 0.000
8:34am 198 4 7 39 83 75.4 58.7 29.30 58.7 583 1285 719 1.17 0.00 0.00 0.000
8:35am 334 2 7 39 83 75.4 58.7 29.30 58.7 583 1285 719 1.15 0.00 0.00 0.000
8:36am 162 5 6 39 83 75.4 58.7 29.30 58.4 583 1285 719 1.13 0.00 0.00 0.000
8:37am 202 7 8 39 83 75.4 58.7 29.30 57.7 582 1285 718 1.11 0.00 0.00 0.000
8:38am 131 5 8 40 83 75.4 58.7 29.30 58.4 583 1285 719 1.09 0.00 0.00 0.000
8:39am 219 2 8 39 83 75.4 58.7 29.30 58.7 583 1285 719 1.08 0.00 0.00 0.000
8:40am 179 2 8 39 83 75.4 58.7 29.30 58.7 583 1285 719 1.06 0.00 0.00 0.000
8:41am 210 3 8 39 83 75.4 58.6 29.30 58.6 583 1285 712 0.94 0.00 0.00 0.000
8:42am 264 4 8 39 83 75.4 58.6 29.30 58.6 583 1285 712 0.92 0.00 0.00 0.000
8:43am 254 4 8 39 83 75.4 58.7 29.30 58.7 582 1285 718 1.01 0.00 0.00 0.000
8:44am 256 2 8 39 83 75.4 58.7 29.30 58.7 582 1285 718 0.99 0.00 0.00 0.000
8:45am 195 3 8 39 83 75.4 58.7 29.30 58.7 581 1285 716 0.98 0.00 0.00 0.000
8:46am 178 2 5 39 83 75.4 58.7 29.30 58.7 582 1285 718 0.96 0.00 0.00 0.000
8:47am 14 4 5 39 83 75.4 58.7 29.30 58.7 583 1285 719 0.94 0.00 0.00 0.000
8:48am 169 3 6 39 83 75.4 58.7 29.30 58.7 583 1285 719 0.93 0.00 0.00 0.000
8:49am 177 1 6 39 83 75.4 58.8 29.30 58.8 582 1286 724 1.01 0.00 0.00 0.000
8:50am 177 4 6 39 83 75.4 58.8 29.30 58.8 582 1286 724 0.99 0.00 0.00 0.000
8:51am 203 1 5 39 83 75.4 58.8 29.30 58.8 582 1286 724 0.98 0.00 0.00 0.000
8:52am 203 3 5 39 83 75.4 58.8 29.30 58.8 582 1286 724 0.96 0.00 0.00 0.000
8:53am 206 7 7 39 83 75.4 58.9 29.30 57.9 581 1287 729 1.04 0.00 0.00 0.000
8:54am 220 3 7 39 83 75.4 58.9 29.30 58.9 581 1287 729 1.03 0.00 0.00 0.000
8:55am 180 3 8 39 83 75.4 58.9 29.30 58.9 581 1287 729 1.01 0.00 0.00 0.000
8:56am 188 2 3 39 83 75.4 58.9 29.30 58.9 582 1287 731 0.99 0.00 0.00 0.000
8:57am 188 0 3 40 83 75.4 58.9 29.30 58.9 582 1287 731 0.98 0.00 0.00 0.000
8:58am 188 1 3 39 83 75.4 58.9 29.30 58.9 582 1287 731 0.96 0.00 0.00 0.000
8:59am 188 1 3 39 83 75.4 59.0 29.30 59.0 582 1287 737 1.04 0.00 0.00 0.000
9:00am 242 10 10 39 83 75.4 59.0 29.30 57.2 582 1287 737 1.03 0.00 0.00 0.000
9:01am 225 8 10 39 82 75.4 59.0 29.30 57.7 582 1370 737 1.01 0.00 0.00 0.000
9:02am 189 7 10 39 81 75.4 59.0 29.30 58.0 582 1454 737 0.99 0.00 0.00 0.000
9:03am 171 5 10 39 81 75.4 59.0 29.30 58.8 582 1454 737 0.98 0.00 0.00 0.000
9:04am 239 7 10 39 81 75.4 59.1 29.30 58.2 581 1454 743 1.06 0.00 0.00 0.000
9:05am 240 6 10 39 81 75.4 59.0 29.30 58.4 582 1454 737 0.94 0.00 0.00 0.000
9:06am 226 4 8 39 81 75.4 59.1 29.30 59.1 582 1454 744 1.03 0.00 0.00 0.000
9:07am 209 4 8 39 81 75.4 59.1 29.30 59.1 582 1454 744 1.01 0.00 0.00 0.000
9:08am 165 7 8 39 81 75.4 59.1 29.30 58.2 582 1454 744 0.99 0.00 0.00 0.000
9:09am 196 1 8 39 81 75.4 59.1 29.30 59.1 582 1454 744 0.98 0.00 0.00 0.000
9:10am 251 7 8 39 81 75.4 59.2 29.30 58.3 582 1455 750 1.06 0.00 0.00 0.000
9:11am 157 2 7 39 81 75.4 59.3 29.30 59.3 582 1455 757 1.14 0.00 0.00 0.000
9:12am 291 3 7 39 81 75.4 59.3 29.30 59.3 581 1455 756 1.12 0.00 0.00 0.000
9:13am 195 5 7 39 81 75.4 59.4 29.30 59.3 581 1456 762 1.20 0.00 0.00 0.000
9:14am 199 3 7 39 81 75.4 59.4 29.30 59.4 582 1456 763 1.19 0.00 0.00 0.000
9:15am 199 0 7 39 82 75.4 59.4 29.30 59.4 582 1372 763 1.17 0.00 0.00 0.000
9:16am 199 1 3 39 82 75.4 59.5 29.30 59.5 582 1373 770 1.25 0.00 0.00 0.000
9:17am 199 2 3 39 82 75.4 59.5 29.30 59.5 582 1373 770 1.22 0.00 0.00 0.000
9:18am 274 2 4 39 82 75.4 59.6 29.30 59.6 583 1373 778 1.30 0.00 0.00 0.000
9:19am 238 4 5 39 81 75.4 59.6 29.30 59.6 582 1457 776 1.28 0.00 0.00 0.000
9:20am 257 0 5 39 80 75.4 59.6 29.30 59.6 583 1542 778 1.26 0.00 0.00 0.000
9:21am 183 3 8 39 80 75.4 59.7 29.30 59.7 583 1543 784 1.34 0.00 0.00 0.000
9:22am 213 3 8 39 81 75.4 59.7 29.30 59.7 582 1458 783 1.32 0.00 0.00 0.000
9:23am 197 2 8 39 80 75.4 59.7 29.30 59.7 583 1543 784 1.29 0.00 0.00 0.000
9:24am 183 3 8 39 80 75.4 59.8 29.30 59.8 583 1543 791 1.37 0.00 0.00 0.000
9:25am 174 4 8 39 80 75.4 59.8 29.29 59.8 584 1543 792 1.35 0.00 0.00 0.000
9:26am 168 3 4 39 79 75.4 59.8 29.29 59.8 584 1629 792 1.33 0.00 0.00 0.000
9:27am 95 7 7 39 79 75.4 59.9 29.30 59.1 583 1630 797 1.40 0.00 0.00 0.000
9:28am 176 3 7 39 79 75.4 60.0 29.30 60.0 583 1631 804 1.48 0.00 0.00 0.000
9:29am 239 1 7 39 79 75.4 60.0 29.30 60.0 583 1631 804 1.45 0.00 0.00 0.000
9:30am 179 0 7 39 78 75.4 60.1 29.30 60.1 583 1718 810 1.53 0.00 0.00 0.000
9:31am 179 0 2 39 78 75.4 60.1 29.29 60.1 584 1718 811 1.50 0.00 0.00 0.000
9:32am 179 1 2 39 78 75.4 60.2 29.30 60.2 583 1719 817 1.58 0.00 0.00 0.000
9:33am 289 4 7 39 78 75.4 60.2 29.30 60.2 583 1719 817 1.55 0.00 0.00 0.000
9:34am 189 1 7 39 78 75.4 60.3 29.30 60.3 583 1720 823 1.62 0.00 0.00 0.000
9:35am 316 3 7 39 78 75.4 60.3 29.30 60.3 583 1720 823 1.60 0.00 0.00 0.000
9:36am 287 0 3 39 76 75.4 60.3 29.30 60.3 583 1897 823 1.57 0.00 0.00 0.000
9:37am 250 2 6 39 76 75.4 60.3 29.30 60.3 583 1897 823 1.55 0.00 0.00 0.000
9:38am 212 4 6 39 77 75.4 60.3 29.30 60.3 582 1808 822 1.52 0.00 0.00 0.000
9:39am 170 2 6 39 76 75.4 60.3 29.30 60.3 582 1897 822 1.49 0.00 0.00 0.000
9:40am 207 3 6 39 76 75.4 60.3 29.30 60.3 582 1897 822 1.47 0.00 0.00 0.000
9:41am 183 4 7 39 75 75.4 60.2 29.30 60.2 583 1986 817 1.35 0.00 0.00 0.000
9:42am 241 2 7 39 74 75.4 60.2 29.30 60.2 582 2077 816 1.32 0.00 0.00 0.000
9:43am 241 1 7 39 76 75.4 60.3 29.30 60.3 582 1897 822 1.40 0.00 0.00 0.000
9:44am 242 1 7 39 75 75.4 60.2 29.30 60.2 582 1986 816 1.28 0.00 0.00 0.000
9:45am 172 0 7 39 75 75.4 60.2 29.30 60.2 582 1986 816 1.26 0.00 0.00 0.000
9:46am 172 1 2 39 75 75.4 60.2 29.30 60.2 581 1986 815 1.24 0.00 0.00 0.000
9:47am 220 1 3 39 75 75.4 60.2 29.30 60.2 582 1986 816 1.22 0.00 0.00 0.000
9:48am 220 3 3 39 75 75.4 60.2 29.30 60.2 582 1986 816 1.20 0.00 0.00 0.000
9:49am 149 7 7 39 74 75.4 60.2 29.30 59.5 583 2077 817 1.18 0.00 0.00 0.000
9:50am 237 3 10 39 74 75.4 60.2 29.30 60.2 583 2077 817 1.16 0.00 0.00 0.000
9:51am 233 1 3 39 74 75.4 60.2 29.30 60.2 583 2077 817 1.14 0.00 0.00 0.000
9:52am 231 3 3 39 74 75.4 60.2 29.30 60.2 582 2077 816 1.12 0.00 0.00 0.000
9:53am 145 6 9 39 75 75.4 60.2 29.30 59.8 582 1986 816 1.10 0.00 0.00 0.000
9:54am 202 2 9 39 74 75.4 60.1 29.30 60.1 582 2076 809 0.98 0.00 0.00 0.000
9:55am 202 2 9 39 74 75.4 60.2 29.30 60.2 581 2077 815 1.07 0.00 0.00 0.000
9:56am 262 3 5 39 74 75.4 60.2 29.30 60.2 580 2077 813 1.05 0.00 0.00 0.000
9:57am 189 6 6 39 74 75.4 60.1 29.30 59.7 580 2076 807 0.93 0.00 0.00 0.000
9:58am 190 2 6 39 73 75.4 60.2 29.30 60.2 580 2169 813 1.02 0.00 0.00 0.000
9:59am 227 1 6 39 73 75.4 60.1 29.30 60.1 580 2168 807 0.90 0.00 0.00 0.000
10:00am 227 1 6 39 73 75.4 60.2 29.30 60.2 580 2169 813 0.98 0.00 0.00 0.000
10:01am 208 2 6 39 73 75.4 60.2 29.30 60.2 579 2169 812 0.97 0.00 0.00 0.000
10:02am 176 0 6 39 73 75.4 60.2 29.30 60.2 579 2169 812 0.95 0.00 0.00 0.000
10:03am 176 1 6 39 74 75.4 60.2 29.30 60.2 578 2077 811 0.94 0.00 0.00 0.000
10:04am 176 2 6 39 75 75.4 60.3 29.30 60.3 576 1987 815 1.02 0.00 0.00 0.000
10:05am 295 4 6 39 75 75.4 60.3 29.30 60.3 576 1987 815 1.00 0.00 0.00 0.000
10:06am 235 2 6 39 73 75.4 60.3 29.30 60.3 576 2170 815 0.99 0.00 0.00 0.000
10:07am 235 1 6 39 73 75.4 60.3 29.30 60.3 574 2170 813 0.97 0.00 0.00 0.000
10:08am 263 5 6 39 72 75.4 60.3 29.31 60.3 572 2263 810 0.95 0.00 0.00 0.000
10:09am 336 2 6 39 72 75.4 60.3 29.31 60.3 573 2263 812 0.94 0.00 0.00 0.000
10:10am 211 4 6 39 72 75.4 60.3 29.31 60.3 572 2263 810 0.92 0.00 0.00 0.000
10:11am 180 2 4 39 72 75.4 60.3 29.31 60.3 572 2263 810 0.91 0.00 0.00 0.000
10:12am 180 2 4 39 72 75.4 60.4 29.31 60.4 571 2264 815 0.99 0.00 0.00 0.000
10:13am 170 0 4 39 73 75.4 60.4 29.31 60.4 571 2171 815 0.97 0.00 0.00 0.000
10:14am 170 2 4 39 73 75.4 60.4 29.31 60.4 570 2171 814 0.96 0.00 0.00 0.000
10:15am 200 1 4 39 73 75.4 60.5 29.31 60.5 570 2172 820 1.04 0.00 0.00 0.000
10:16am 154 2 4 39 73 75.4 60.5 29.31 60.5 569 2172 819 1.02 0.00 0.00 0.000
10:17am 227 3 4 39 72 75.4 60.6 29.31 60.6 568 2266 825 1.11 0.00 0.00 0.000
10:18am 128 3 6 39 72 75.4 60.6 29.31 60.6 568 2266 825 1.09 0.00 0.00 0.000
10:19am 198 1 6 39 72 75.4 60.6 29.31 60.6 568 2266 825 1.07 0.00 0.00 0.000
10:20am 204 4 6 39 72 75.4 60.7 29.31 60.7 568 2267 831 1.15 0.00 0.00 0.000
10:21am 164 1 5 39 72 75.4 60.7 29.31 60.7 568 2267 831 1.13 0.00 0.00 0.000
10:22am 165 3 5 39 72 75.4 60.8 29.31 60.8 568 2268 838 1.21 0.00 0.00 0.000
10:23am 123 1 6 39 71 75.4 60.8 29.31 60.8 568 2363 838 1.19 0.00 0.00 0.000
10:24am 124 0 6 39 71 75.4 60.8 29.31 60.8 568 2363 838 1.17 0.00 0.00 0.000
10:25am 124 1 6 39 72 75.4 60.9 29.31 60.9 568 2269 844 1.25 0.00 0.00 0.000
10:26am 124 2 2 39 71 75.4 60.9 29.31 60.9 568 2364 844 1.23 0.00 0.00 0.000
10:27am 124 0 2 39 71 75.4 60.9 29.31 60.9 568 2364 844 1.21 0.00 0.00 0.000
10:28am 124 0 2 39 72 75.4 61.0 29.31 61.0 568 2270 851 1.29 0.00 0.00 0.000
10:29am 124 1 2 39 72 75.4 61.1 29.31 61.1 568 2271 857 1.37 0.00 0.00 0.000
10:30am 124 3 3 39 72 75.4 61.2 29.31 61.2 568 2272 864 1.44 0.00 0.00 0.000
10:31am 131 4 4 41 72 75.4 61.3 29.31 61.3 568 2273 870 1.52 0.00 0.00 0.000
10:32am 189 3 4 39 72 75.4 61.3 29.31 61.3 569 2273 872 1.50 0.00 0.00 0.000
10:33am 194 1 4 39 71 75.4 61.3 29.31 61.3 569 2368 872 1.47 0.00 0.00 0.000
10:34am 185 5 5 39 71 75.4 61.4 29.31 61.4 569 2369 878 1.54 0.00 0.00 0.000
10:35am 164 4 6 39 71 75.4 61.4 29.31 61.4 569 2369 878 1.52 0.00 0.00 0.000
10:36am 114 1 5 39 71 75.4 61.4 29.31 61.4 569 2369 878 1.49 0.00 0.00 0.000
10:37am 253 3 5 39 71 75.4 61.3 29.31 61.3 569 2368 872 1.37 0.00 0.00 0.000
10:38am 188 3 5 39 70 75.4 61.3 29.31 61.3 569 2464 872 1.35 0.00 0.00 0.000
10:39am 156 3 6 39 70 75.4 61.3 29.31 61.3 570 2464 873 1.32 0.00 0.00 0.000
10:40am 156 2 6 39 70 75.4 61.3 29.31 61.3 569 2464 872 1.30 0.00 0.00 0.000
10:41am 156 2 3 39 71 75.6 61.3 29.31 61.3 569 2368 872 1.28 0.00 0.00 0.000
10:42am 156 0 3 39 71 75.6 61.2 29.31 61.2 569 2367 865 1.16 0.00 0.00 0.000
10:43am 156 0 3 39 71 75.6 61.2 29.31 61.2 569 2367 865 1.14 0.00 0.00 0.000
10:44am 156 0 3 39 72 75.6 61.3 29.31 61.3 569 2273 872 1.22 0.00 0.00 0.000
10:45am 156 3 3 39 73 75.6 61.3 29.31 61.3 569 2179 872 1.20 0.00 0.00 0.000
10:46am 156 0 3 39 72 75.6 61.4 29.31 61.4 569 2274 878 1.28 0.00 0.00 0.000
10:47am 156 1 3 39 71 75.4 61.4 29.31 61.4 569 2369 878 1.26 0.00 0.00 0.000
10:48am 156 1 3 39 72 75.6 61.4 29.31 61.4 569 2274 878 1.24 0.00 0.00 0.000
10:49am 156 0 3 39 71 75.4 61.4 29.31 61.4 568 2369 877 1.22 0.00 0.00 0.000
10:50am 156 0 3 39 72 75.6 61.5 29.31 61.5 568 2275 883 1.30 0.00 0.00 0.000
10:51am 156 1 1 39 72 75.6 61.6 29.31 61.6 568 2276 890 1.38 0.00 0.00 0.000
10:52am 156 0 1 39 71 75.6 61.6 29.31 61.6 568 2371 890 1.35 0.00 0.00 0.000
10:53am 156 0 1 39 71 75.4 61.6 29.31 61.6 569 2371 891 1.33 0.00 0.00 0.000
10:54am 156 0 1 39 71 75.4 61.8 29.31 61.8 569 2373 904 1.51 0.00 0.00 0.000
10:55am 156 0 1 39 71 75.4 61.8 29.31 61.8 570 2373 905 1.48 0.00 0.00 0.000
10:56am 156 2 2 39 71 75.4 61.9 29.31 61.9 570 2374 912 1.56 0.00 0.00 0.000
10:57am 156 2 3 39 71 75.6 61.9 29.31 61.9 569 2374 911 1.53 0.00 0.00 0.000
10:58am 156 0 3 39 70 75.6 61.9 29.31 61.9 569 2470 911 1.51 0.00 0.00 0.000
10:59am 156 0 3 39 70 75.6 61.9 29.31 61.9 568 2470 909 1.48 0.00 0.00 0.000
11:00am 156 0 3 39 70 75.6 61.9 29.31 61.9 568 2470 909 1.46 0.00 0.00 0.000
11:01am 156 0 0 39 71 75.6 62.0 29.31 62.0 569 2375 917 1.53 0.00 0.00 0.000
11:02am 156 1 1 39 72 75.6 62.1 29.31 62.1 569 2281 924 1.60 0.00 0.00 0.000
11:03am 156 0 1 39 71 75.6 62.1 29.31 62.1 571 2376 926 1.58 0.00 0.00 0.000
11:04am 156 0 1 39 72 75.6 62.1 29.31 62.1 571 2281 926 1.55 0.00 0.00 0.000
11:05am 219 3 3 39 70 75.6 62.1 29.31 62.1 570 2472 925 1.53 0.00 0.00 0.000
11:06am 333 2 4 39 69 75.6 62.1 29.31 62.1 571 2570 926 1.50 0.00 0.00 0.000
11:07am 300 3 4 39 70 75.6 62.0 29.31 62.0 571 2471 919 1.38 0.00 0.00 0.000
11:08am 305 0 4 39 69 75.6 61.9 29.31 61.9 571 2567 913 1.25 0.00 0.00 0.000
11:09am 300 2 4 39 71 75.6 61.9 29.31 61.9 571 2374 913 1.22 0.00 0.00 0.000
11:10am 300 1 4 39 70 75.6 61.9 29.31 61.9 573 2470 916 1.21 0.00 0.00 0.000
11:11am 300 0 1 39 70 75.6 61.9 29.30 61.9 574 2470 917 1.19 0.00 0.00 0.000
11:12am 300 1 1 39 70 75.6 61.9 29.30 61.9 577 2470 921 1.17 0.00 0.00 0.000
11:13am 300 1 2 39 70 75.6 61.9 29.30 61.9 578 2470 922 1.15 0.00 0.00 0.000
11:14am 300 2 2 39 70 75.6 61.9 29.30 61.9 580 2470 924 1.14 0.00 0.00 0.000
11:15am 197 0 2 39 71 75.6 62.0 29.30 62.0 582 2375 933 1.21 0.00 0.00 0.000
11:16am 197 0 2 39 71 75.6 62.0 29.30 62.0 582 2375 933 1.19 0.00 0.00 0.000
11:17am 197 1 2 39 70 75.6 62.0 29.30 62.0 582 2471 933 1.17 0.00 0.00 0.000
11:18am 197 1 2 39 70 75.6 62.1 29.30 62.1 582 2472 940 1.25 0.00 0.00 0.000
11:19am 197 2 3 39 70 75.6 62.2 29.30 62.2 581 2473 945 1.33 0.00 0.00 0.000
11:20am 197 3 3 39 70 75.6 62.2 29.30 62.2 581 2473 945 1.31 0.00 0.00 0.000
11:21am 162 4 4 39 69 75.6 62.2 29.30 62.2 582 2571 946 1.29 0.00 0.00 0.000
11:22am 155 2 4 39 69 75.6 62.1 29.30 62.1 582 2570 940 1.17 0.00 0.00 0.000
11:23am 177 3 5 39 69 75.6 62.1 29.30 62.1 583 2570 941 1.15 0.00 0.00 0.000
11:24am 177 2 5 39 69 75.6 62.1 29.30 62.1 583 2570 941 1.13 0.00 0.00 0.000
11:25am 178 1 5 39 70 75.6 62.0 29.29 62.0 584 2471 935 1.01 0.00 0.00 0.000
11:26am 178 1 1 39 69 75.6 62.0 29.29 62.0 584 2569 935 0.99 0.00 0.00 0.000
11:27am 115 3 4 39 70 75.6 62.1 29.29 62.1 584 2472 942 1.08 0.00 0.00 0.000
11:28am 156 1 4 39 70 75.6 62.1 29.29 62.1 584 2472 943 1.06 0.00 0.00 0.000
11:29am 158 2 4 39 70 75.6 62.1 29.29 62.1 585 2472 944 1.04 0.00 0.00 0.000
11:30am 158 1 4 39 69 75.6 62.2 29.29 62.2 585 2571 951 1.12 0.00 0.00 0.000
11:31am 158 1 2 39 70 75.6 62.2 29.29 62.2 584 2473 949 1.11 0.00 0.00 0.000
11:32am 158 2 2 39 70 75.6 62.3 29.29 62.3 585 2474 957 1.19 0.00 0.00 0.000
11:33am 253 1 3 39 70 75.6 62.4 29.29 62.4 587 2475 966 1.26 0.00 0.00 0.000
11:34am 253 1 3 39 69 75.6 62.4 29.29 62.4 589 2573 968 1.24 0.00 0.00 0.000
11:35am 253 0 3 39 70 75.6 62.5 29.29 62.5 589 2476 975 1.32 0.00 0.00 0.000
11:36am 253 2 3 39 70 75.6 62.7 29.29 62.7 590 2478 989 1.50 0.00 0.00 0.000
11:37am 253 1 3 39 69 75.6 62.7 29.29 62.7 591 2576 990 1.47 0.00 0.00 0.000
11:38am 253 0 3 39 69 75.6 62.8 29.29 62.8 592 2577 998 1.55 0.00 0.00 0.000
11:39am 253 0 3 39 69 75.6 62.9 29.29 62.9 592 2578 1004 1.62 0.00 0.00 0.000
11:40am 253 1 3 39 69 75.6 63.1 29.29 63.1 592 2581 1017 1.80 0.00 0.00 0.000
11:41am 195 2 3 39 68 75.6 63.2 29.29 63.2 589 2681 1020 1.87 0.00 0.00 0.000
11:42am 160 1 5 39 67 75.6 63.3 29.29 63.3 590 2783 1028 1.93 0.00 0.00 0.000
11:43am 161 0 5 39 67 75.6 63.4 29.29 63.4 589 2784 1033 2.00 0.00 0.00 0.000
11:44am 161 0 5 39 68 75.6 63.5 29.29 63.5 590 2684 1041 2.07 0.00 0.00 0.000
11:45am 161 0 5 39 67 75.6 63.6 29.29 63.6 592 2786 1049 2.13 0.00 0.00 0.000
11:46am 161 1 1 39 69 75.6 63.9 29.28 63.9 595 2589 1072 2.39 0.00 0.00 0.000
11:47am 161 0 1 39 68 75.6 64.1 29.28 64.1 597 2691 1089 2.55 0.00 0.00 0.000
11:48am 161 0 2 39 66 75.6 64.1 29.28 64.1 598 2894 1090 2.51 0.00 0.00 0.000
11:49am 161 1 2 39 65 75.6 64.3 29.28 64.3 598 3001 1103 2.67 0.00 0.00 0.000
11:50am 96 4 4 39 66 75.6 64.3 29.28 64.3 598 2897 1103 2.62 0.00 0.00 0.000
11:51am 96 2 4 39 66 75.6 64.3 29.28 64.3 598 2897 1103 2.58 0.00 0.00 0.000
11:52am 96 1 4 39 66 75.6 64.4 29.28 64.4 598 2898 1109 2.64 0.00 0.00 0.000
11:53am 96 1 4 39 67 75.6 64.4 29.28 64.4 598 2796 1109 2.59 0.00 0.00 0.000
11:54am 172 5 5 39 67 75.6 64.5 29.28 64.5 598 2797 1116 2.65 0.00 0.00 0.000
11:55am 202 3 7 39 67 75.6 64.4 29.28 64.4 598 2796 1109 2.51 0.00 0.00 0.000
11:56am 213 2 4 39 66 75.6 64.4 29.28 64.4 598 2898 1109 2.47 0.00 0.00 0.000
11:57am 100 4 4 39 66 75.6 64.3 29.28 64.3 598 2897 1103 2.33 0.00 0.00 0.000
11:58am 76 5 7 39 66 75.6 64.2 29.28 64.2 598 2896 1096 2.19 0.00 0.00 0.000
11:59am 77 4 7 39 67 75.6 64.2 29.28 64.2 598 2793 1096 2.15 0.00 0.00 0.000
12:00pm 80 3 7 39 67 75.6 64.0 29.28 64.0 598 2791 1083 1.92 0.00 0.00 0.000
12:01pm 81 2 3 39 67 75.6 63.9 29.28 63.9 598 2790 1077 1.79 0.00 0.00 0.000
12:02pm 80 4 5 39 67 75.6 63.8 29.28 63.8 598 2789 1070 1.66 0.00 0.00 0.000
12:03pm 80 3 5 39 67 75.6 63.7 29.28 63.7 597 2787 1063 1.53 0.00 0.00 0.000
12:04pm 80 1 5 39 67 75.6 63.7 29.28 63.7 596 2787 1062 1.51 0.00 0.00 0.000
12:05pm 80 2 5 39 68 75.6 63.7 29.28 63.7 596 2687 1061 1.48 0.00 0.00 0.000
12:06pm 80 4 4 39 68 75.6 63.7 29.28 63.7 596 2687 1061 1.46 0.00 0.00 0.000
12:07pm 81 2 4 39 67 75.6 63.7 29.28 63.7 596 2787 1061 1.43 0.00 0.00 0.000
12:08pm 80 0 4 39 67 75.6 63.6 29.28 63.6 596 2786 1055 1.31 0.00 0.00 0.000
12:09pm 80 3 4 39 67 75.6 63.6 29.28 63.6 596 2786 1055 1.29 0.00 0.00 0.000
12:10pm 81 5 5 39 68 75.6 63.5 29.28 63.5 596 2684 1048 1.17 0.00 0.00 0.000
12:11pm 81 3 5 39 68 75.6 63.5 29.28 63.5 594 2684 1045 1.15 0.00 0.00 0.000
12:12pm 81 3 5 39 68 75.6 63.4 29.28 63.4 594 2683 1039 1.03 0.00 0.00 0.000
12:13pm 81 1 5 39 68 75.6 63.3 29.28 63.3 594 2682 1032 0.92 0.00 0.00 0.000
12:14pm 81 2 5 39 68 75.6 63.2 29.28 63.2 594 2681 1026 0.80 0.00 0.00 0.000
12:15pm 81 2 5 39 68 75.6 63.1 29.28 63.1 594 2680 1019 0.69 0.00 0.00 0.000
12:16pm 81 4 4 39 68 75.6 63.1 29.28 63.1 594 2680 1019 0.68 0.00 0.00 0.000
12:17pm 81 1 4 39 68 75.6 63.0 29.28 63.0 593 2679 1012 0.57 0.00 0.00 0.000
12:18pm 81 0 4 39 68 75.6 62.9 29.28 62.9 593 2677 1005 0.46 0.00 0.00 0.000
12:19pm 81 0 4 39 69 75.6 62.9 29.29 62.9 591 2578 1003 0.45 0.00 0.00 0.000
12:20pm 81 1 4 39 69 75.6 62.9 29.29 62.9 591 2578 1003 0.45 0.00 0.00 0.000
12:21pm 81 0 2 39 69 75.6 62.9 29.29 62.9 589 2578 1001 0.44 0.00 0.00 0.000
12:22pm 81 3 3 39 71 75.6 62.9 29.29 62.9 589 2384 1001 0.43 0.00 0.00 0.000
12:23pm 80 2 3 39 69 75.6 62.9 29.29 62.9 588 2578 1000 0.42 0.00 0.00 0.000
12:24pm 81 3 3 39 70 75.6 62.9 29.29 62.9 586 2480 997 0.42 0.00 0.00 0.000
12:25pm 81 2 3 39 69 75.6 62.8 29.29 62.8 585 2577 990 0.31 0.00 0.00 0.000
12:26pm 81 0 2 39 69 75.6 62.7 29.29 62.7 586 2576 984 0.21 0.00 0.00 0.000
12:27pm 81 0 2 39 70 75.6 62.7 29.29 62.7 586 2478 984 0.20 0.00 0.00 0.000
12:28pm 81 1 3 39 69 75.6 62.7 29.29 62.7 588 2576 987 0.20 0.00 0.00 0.000
12:29pm 81 1 3 39 69 75.6 62.7 29.29 62.7 590 2576 989 0.20 0.00 0.00 0.000
12:30pm 81 0 3 39 69 75.6 62.7 29.29 62.7 590 2576 989 0.19 0.00 0.00 0.000
12:31pm 81 0 0 39 69 75.6 62.7 29.29 62.7 592 2576 991 0.19 0.00 0.00 0.000
12:32pm 81 1 3 39 70 75.6 62.7 29.29 62.7 592 2478 991 0.19 0.00 0.00 0.000
12:33pm 81 0 3 39 69 75.6 62.7 29.29 62.7 592 2576 991 0.18 0.00 0.00 0.000
12:34pm 80 0 3 39 69 75.6 62.8 29.29 62.8 591 2577 996 0.28 0.00 0.00 0.000
12:35pm 81 0 3 39 70 75.6 62.8 29.29 62.8 592 2479 998 0.28 0.00 0.00 0.000
12:36pm 81 0 2 39 69 75.6 62.7 29.29 62.7 592 2576 991 0.17 0.00 0.00 0.000
12:37pm 81 0 2 39 69 75.6 62.8 29.28 62.8 593 2577 999 0.27 0.00 0.00 0.000
12:38pm 80 0 2 39 68 75.6 62.8 29.29 62.8 592 2676 998 0.26 0.00 0.00 0.000
12:39pm 81 0 2 39 68 75.6 62.7 29.28 62.7 593 2675 992 0.16 0.00 0.00 0.000
12:40pm 81 0 2 39 68 75.6 62.8 29.29 62.8 592 2676 998 0.26 0.00 0.00 0.000
12:41pm 80 1 1 39 68 75.6 62.8 29.29 62.8 592 2676 998 0.25 0.00 0.00 0.000
12:42pm 81 1 1 39 68 75.6 62.9 29.28 62.9 593 2677 1005 0.35 0.00 0.00 0.000
12:43pm 81 1 1 39 68 75.6 62.9 29.28 62.9 594 2677 1006 0.34 0.00 0.00 0.000
12:44pm 81 0 1 39 68 75.6 62.9 29.28 62.9 593 2677 1005 0.33 0.00 0.00 0.000
12:45pm 81 0 1 39 68 75.6 62.9 29.28 62.9 593 2677 1005 0.33 0.00 0.00 0.000
12:46pm 81 0 0 39 68 75.6 62.9 29.28 62.9 593 2677 1005 0.32 0.00 0.00 0.000
12:47pm 81 0 0 39 68 75.6 62.9 29.28 62.9 593 2677 1005 0.32 0.00 0.00 0.000
12:48pm 81 0 0 41 68 75.6 62.9 29.29 62.9 591 2677 1003 0.31 0.00 0.00 0.000
12:49pm 81 0 0 39 68 75.6 63.0 29.29 63.0 591 2679 1009 0.40 0.00 0.00 0.000
12:50pm 81 0 0 39 68 75.6 63.0 29.28 63.0 593 2679 1012 0.40 0.00 0.00 0.000
12:51pm 81 0 1 39 68 75.6 63.1 29.28 63.1 593 2680 1018 0.49 0.00 0.00 0.000
12:52pm 81 0 1 39 68 75.6 63.1 29.28 63.1 593 2680 1018 0.48 0.00 0.00 0.000
12:53pm 81 0 1 39 68 75.6 63.1 29.29 63.1 592 2680 1017 0.47 0.00 0.00 0.000
12:54pm 81 0 1 39 68 75.6 63.2 29.29 63.2 592 2681 1024 0.57 0.00 0.00 0.000
12:55pm 81 0 1 39 69 75.6 63.2 29.29 63.2 592 2582 1024 0.56 0.00 0.00 0.000
12:56pm 81 0 2 39 68 75.6 63.2 29.28 63.2 593 2681 1025 0.55 0.00 0.00 0.000
12:57pm 81 1 2 39 68 75.6 63.2 29.28 63.2 594 2681 1026 0.54 0.00 0.00 0.000
12:58pm 81 2 2 39 68 75.6 63.2 29.28 63.2 596 2681 1028 0.53 0.00 0.00 0.000
12:59pm 81 0 2 39 69 75.6 63.1 29.28 63.1 596 2581 1022 0.42 0.00 0.00 0.000
1:00pm 81 0 2 39 69 75.6 63.1 29.28 63.1 596 2581 1022 0.41 0.00 0.00 0.000
1:01pm 80 2 3 39 69 75.6 63.1 29.28 63.1 596 2581 1022 0.41 0.00 0.00 0.000
1:02pm 81 0 3 39 68 75.6 63.0 29.28 63.0 596 2679 1015 0.30 0.00 0.00 0.000
1:03pm 81 0 3 39 68 75.6 63.0 29.28 63.0 596 2679 1015 0.30 0.00 0.00 0.000
1:04pm 81 0 3 39 69 75.6 63.0 29.28 63.0 596 2579 1015 0.29 0.00 0.00 0.000
1:05pm 80 0 3 39 69 75.6 63.0 29.28 63.0 596 2579 1016 0.29 0.00 0.00 0.000
1:06pm 81 0 0 39 70 75.6 63.0 29.28 63.0 596 2482 1016 0.28 0.00 0.00 0.000
1:07pm 81 0 0 39 70 75.6 63.1 29.28 63.1 596 2483 1023 0.38 0.00 0.00 0.000
1:08pm 81 1 1 39 69 75.6 63.0 29.28 63.0 596 2579 1016 0.27 0.00 0.00 0.000
1:09pm 81 0 1 39 68 75.6 63.0 29.28 63.0 596 2679 1016 0.27 0.00 0.00 0.000
1:10pm 81 0 1 39 69 75.7 63.0 29.28 63.0 596 2579 1016 0.26 0.00 0.00 0.000
1:11pm 81 0 1 39 69 75.6 63.0 29.28 63.0 596 2579 1015 0.26 0.00 0.00 0.000
1:12pm 81 0 1 39 69 75.6 63.0 29.28 63.0 596 2579 1016 0.25 0.00 0.00 0.000
1:13pm 81 0 1 39 69 75.6 63.0 29.28 63.0 596 2579 1016 0.25 0.00 0.00 0.000
1:14pm 81 0 1 39 69 75.6 63.1 29.28 63.1 596 2581 1023 0.34 0.00 0.00 0.000
1:15pm 80 0 1 39 70 75.6 63.0 29.28 63.0 596 2482 1016 0.24 0.00 0.00 0.000
1:16pm 80 0 0 39 70 75.6 63.0 29.28 63.0 596 2482 1016 0.23 0.00 0.00 0.000
1:17pm 80 0 0 39 69 75.6 63.0 29.28 63.0 596 2579 1016 0.23 0.00 0.00 0.000
1:18pm 81 0 0 39 69 75.6 62.9 29.28 62.9 596 2578 1010 0.13 0.00 0.00 0.000
1:19pm 81 0 0 39 70 75.6 62.9 29.28 62.9 596 2480 1009 0.12 0.00 0.00 0.000
1:20pm 81 0 0 39 70 75.6 63.0 29.28 63.0 596 2482 1015 0.22 0.00 0.00 0.000
1:21pm 81 0 0 39 70 75.6 63.0 29.28 63.0 596 2482 1015 0.22 0.00 0.00 0.000
1:22pm 81 0 0 39 70 75.6 63.1 29.28 63.1 595 2483 1020 0.31 0.00 0.00 0.000
1:23pm 80 0 0 39 70 75.6 63.0 29.28 63.0 594 2482 1013 0.21 0.00 0.00 0.000
1:24pm 81 0 0 39 70 75.6 63.1 29.28 63.1 595 2483 1020 0.30 0.00 0.00 0.000
1:25pm 81 0 0 39 69 75.6 63.1 29.28 63.1 595 2581 1020 0.30 0.00 0.00 0.000
1:26pm 80 0 0 39 69 75.6 63.0 29.28 63.0 595 2579 1014 0.19 0.00 0.00 0.000
1:27pm 80 0 0 39 70 75.6 63.1 29.28 63.1 595 2483 1020 0.29 0.00 0.00 0.000
1:28pm 81 0 0 39 70 75.6 63.1 29.28 63.1 596 2483 1022 0.29 0.00 0.00 0.000
1:29pm 80 0 0 39 70 75.6 63.0 29.28 63.0 596 2482 1016 0.18 0.00 0.00 0.000
1:30pm 80 0 0 39 70 75.6 63.0 29.28 63.0 596 2482 1016 0.18 0.00 0.00 0.000
1:31pm 80 0 0 39 70 75.6 63.0 29.28 63.0 596 2482 1016 0.18 0.00 0.00 0.000
1:32pm 81 0 0 39 70 75.6 63.0 29.28 63.0 596 2482 1016 0.17 0.00 0.00 0.000
1:33pm 81 0 0 39 69 75.6 63.0 29.28 63.0 596 2579 1016 0.17 0.00 0.00 0.000
1:34pm 81 0 0 39 70 75.6 63.0 29.28 63.0 597 2482 1017 0.17 0.00 0.00 0.000
1:35pm 80 0 0 39 71 75.6 63.0 29.28 63.0 597 2385 1017 0.17 0.00 0.00 0.000
1:36pm 80 0 0 39 71 75.7 63.0 29.28 63.0 597 2385 1017 0.16 0.00 0.00 0.000
1:37pm 80 0 0 39 71 75.7 63.0 29.28 63.0 597 2385 1017 0.16 0.00 0.00 0.000
1:38pm 81 0 0 39 71 75.7 63.0 29.28 63.0 597 2385 1017 0.16 0.00 0.00 0.000
1:39pm 80 0 0 39 71 75.7 63.0 29.28 63.0 597 2385 1017 0.16 0.00 0.00 0.000
1:40pm 81 0 0 39 71 75.7 63.0 29.28 63.0 597 2385 1017 0.15 0.00 0.00 0.000
1:41pm 80 0 0 39 71 75.7 62.9 29.28 62.9 597 2384 1011 0.05 0.00 0.00 0.000
1:42pm 81 0 1 39 71 75.7 62.9 29.28 62.9 597 2384 1011 0.05 0.00 0.00 0.000
1:43pm 80 1 2 39 71 75.7 62.9 29.28 62.9 598 2384 1012 0.05 0.00 0.00 0.000
1:44pm 80 0 2 39 70 75.7 62.9 29.28 62.9 598 2480 1012 0.05 0.00 0.00 0.000
1:45pm 81 3 3 39 70 75.7 62.9 29.28 62.9 601 2480 1015 0.05 0.00 0.00 0.000
1:46pm 81 0 3 39 70 75.7 62.9 29.28 62.9 601 2480 1015 0.05 0.00 0.00 0.000
1:47pm 81 2 3 39 70 75.7 62.8 29.28 62.8 601 2479 1009 -0.05 0.00 0.00 0.000
1:48pm 80 0 3 39 71 75.7 62.8 29.28 62.8 600 2383 1008 -0.05 0.00 0.00 0.000
1:49pm 80 0 3 39 72 75.7 62.8 29.28 62.8 599 2287 1007 -0.05 0.00 0.00 0.000
1:50pm 80 0 3 39 72 75.7 62.7 29.28 62.7 598 2286 999 -0.15 0.00 0.00 0.000
1:51pm 80 0 0 39 72 75.7 62.8 29.28 62.8 598 2287 1006 -0.05 0.00 0.00 0.000
1:52pm 80 0 1 39 72 75.7 62.8 29.28 62.8 598 2287 1006 -0.05 0.00 0.00 0.000
1:53pm 80 0 1 39 72 75.7 62.8 29.28 62.8 597 2287 1004 -0.05 0.00 0.00 0.000
1:54pm 80 0 1 39 72 75.7 62.8 29.28 62.8 597 2287 1004 -0.04 0.00 0.00 0.000
1:55pm 80 0 1 39 73 75.7 62.9 29.28 62.9 597 2194 1011 0.06 0.00 0.00 0.000
1:56pm 80 0 0 39 73 75.7 62.8 29.28 62.8 597 2193 1004 -0.04 0.00 0.00 0.000
1:57pm 80 1 1 39 73 75.7 62.9 29.28 62.9 598 2194 1012 0.06 0.00 0.00 0.000
1:58pm 80 1 2 39 73 75.7 62.9 29.28 62.9 598 2194 1012 0.06 0.00 0.00 0.000
1:59pm 80 0 3 39 72 75.7 62.8 29.28 62.8 598 2287 1006 -0.04 0.00 0.00 0.000
2:00pm 80 2 3 39 72 75.7 62.7 29.28 62.7 598 2286 999 -0.14 0.00 0.00 0.000
2:01pm 80 2 2 39 72 75.7 62.7 29.28 62.7 598 2286 999 -0.14 0.00 0.00 0.000
2:02pm 81 3 3 39 72 75.7 62.7 29.28 62.7 599 2286 1000 -0.14 0.00 0.00 0.000
2:03pm 80 1 3 39 72 75.7 62.6 29.28 62.6 599 2285 994 -0.23 0.00 0.00 0.000
2:04pm 80 2 3 39 72 75.7 62.5 29.28 62.5 600 2284 988 -0.33 0.00 0.00 0.000
2:05pm 81 2 3 39 72 75.7 62.5 29.28 62.5 600 2284 988 -0.32 0.00 0.00 0.000
2:06pm 80 3 3 39 72 75.7 62.4 29.27 62.4 602 2283 984 -0.42 0.00 0.00 0.000
2:07pm 80 2 3 39 72 75.7 62.3 29.27 62.3 603 2283 979 -0.51 0.00 0.00 0.000
2:08pm 80 2 3 39 73 75.7 62.3 29.27 62.3 604 2188 980 -0.50 0.00 0.00 0.000
2:09pm 80 2 3 39 73 75.7 62.3 29.27 62.3 602 2188 978 -0.49 0.00 0.00 0.000
2:10pm 80 0 3 39 73 75.7 62.3 29.28 62.3 600 2188 975 -0.49 0.00 0.00 0.000
2:11pm 80 1 1 39 73 75.7 62.3 29.28 62.3 600 2188 975 -0.48 0.00 0.00 0.000
2:12pm 80 2 3 39 73 75.7 62.3 29.28 62.3 599 2188 974 -0.47 0.00 0.00 0.000
2:13pm 80 3 3 39 73 75.7 62.3 29.28 62.3 599 2188 974 -0.46 0.00 0.00 0.000
2:14pm 80 3 5 39 73 75.7 62.3 29.28 62.3 600 2188 975 -0.45 0.00 0.00 0.000
2:15pm 81 2 5 39 72 75.7 62.3 29.28 62.3 599 2283 974 -0.45 0.00 0.00 0.000
2:16pm 80 1 4 39 72 75.7 62.3 29.28 62.3 600 2283 975 -0.44 0.00 0.00 0.000
2:17pm 81 1 4 39 73 75.7 62.3 29.28 62.3 599 2188 974 -0.43 0.00 0.00 0.000
2:18pm 81 0 4 39 73 75.7 62.3 29.28 62.3 599 2188 974 -0.43 0.00 0.00 0.000
2:19pm 81 0 4 39 73 75.7 62.4 29.28 62.4 599 2189 981 -0.32 0.00 0.00 0.000
2:20pm 80 2 4 39 73 75.7 62.4 29.28 62.4 598 2189 980 -0.31 0.00 0.00 0.000
2:21pm 81 1 3 39 73 75.7 62.5 29.28 62.5 599 2190 987 -0.21 0.00 0.00 0.000
2:22pm 81 1 3 39 72 75.7 62.5 29.28 62.5 600 2284 988 -0.21 0.00 0.00 0.000
2:23pm 80 2 3 39 72 75.7 62.6 29.28 62.6 600 2285 995 -0.10 0.00 0.00 0.000
2:24pm 81 5 5 39 73 75.7 62.7 29.28 62.7 599 2192 1000 -0.00 0.00 0.00 0.000
2:25pm 81 3 5 39 72 75.7 62.6 29.28 62.6 599 2285 994 -0.10 0.00 0.00 0.000
2:26pm 80 2 5 39 72 75.7 62.6 29.28 62.6 600 2285 995 -0.10 0.00 0.00 0.000
2:27pm 80 0 5 39 73 75.7 62.6 29.28 62.6 601 2191 996 -0.10 0.00 0.00 0.000
2:28pm 80 2 5 39 73 75.7 62.6 29.27 62.6 603 2191 998 -0.10 0.00 0.00 0.000
2:29pm 80 0 5 39 73 75.7 62.6 29.27 62.6 604 2191 999 -0.10 0.00 0.00 0.000
2:30pm 359 2 5 39 73 75.7 62.5 29.27 62.5 605 2190 994 -0.19 0.00 0.00 0.000
2:31pm 360 1 2 39 74 75.7 62.5 29.27 62.5 606 2097 995 -0.19 0.00 0.00 0.000
2:32pm 1 3 3 39 73 75.7 62.5 29.27 62.5 608 2190 997 -0.19 0.00 0.00 0.000
2:33pm 348 3 5 39 73 75.7 62.4 29.27 62.4 609 2189 992 -0.28 0.00 0.00 0.000
2:34pm 348 1 5 39 73 75.7 62.3 29.27 62.3 609 2188 987 -0.38 0.00 0.00 0.000
2:35pm 348 1 5 39 74 75.7 62.3 29.27 62.3 609 2096 987 -0.37 0.00 0.00 0.000
2:36pm 92 1 3 39 74 75.7 62.3 29.27 62.3 609 2096 987 -0.37 0.00 0.00 0.000
2:37pm 68 3 7 39 74 75.7 62.3 29.26 62.3 611 2096 989 -0.36 0.00 0.00 0.000
2:38pm 81 1 7 39 74 75.7 62.3 29.27 62.3 610 2096 988 -0.36 0.00 0.00 0.000
2:39pm 81 1 7 39 75 75.7 62.3 29.26 62.3 611 2004 989 -0.35 0.00 0.00 0.000
2:40pm 83 3 7 39 75 75.7 62.3 29.26 62.3 611 2004 989 -0.34 0.00 0.00 0.000
2:41pm 52 4 4 39 74 75.7 62.3 29.26 62.3 611 2096 989 -0.34 0.00 0.00 0.000
2:42pm 20 2 5 39 74 75.7 62.3 29.26 62.3 611 2096 989 -0.33 0.00 0.00 0.000
2:43pm 21 1 5 39 74 75.7 62.3 29.26 62.3 611 2096 989 -0.33 0.00 0.00 0.000
2:44pm 76 2 5 39 74 75.7 62.4 29.26 62.4 612 2096 997 -0.22 0.00 0.00 0.000
2:45pm 73 1 5 39 74 75.7 62.4 29.26 62.4 612 2096 997 -0.22 0.00 0.00 0.000
2:46pm 79 3 3 39 74 75.7 62.4 29.26 62.4 612 2096 997 -0.21 0.00 0.00 0.000
2:47pm 80 2 6 39 73 75.7 62.4 29.26 62.4 613 2189 998 -0.21 0.00 0.00 0.000
2:48pm 80 2 6 39 74 75.7 62.4 29.26 62.4 616 2096 1001 -0.21 0.00 0.00 0.000
2:49pm 80 2 6 39 74 75.7 62.3 29.26 62.3 619 2096 998 -0.30 0.00 0.00 0.000
2:50pm 80 2 6 39 74 75.7 62.3 29.26 62.3 621 2096 1000 -0.30 0.00 0.00 0.000
2:51pm 80 1 2 39 74 75.7 62.3 29.25 62.3 621 2096 1002 -0.29 0.00 0.00 0.000
2:52pm 80 0 2 39 74 75.7 62.3 29.25 62.3 623 2096 1004 -0.29 0.00 0.00 0.000
2:53pm 80 4 4 41 74 75.7 62.3 29.25 62.3 624 2096 1005 -0.28 0.00 0.00 0.000
2:54pm 80 0 4 39 75 75.7 62.3 29.25 62.3 623 2004 1004 -0.28 0.00 0.00 0.000
2:55pm 80 1 4 39 75 75.7 62.4 29.25 62.4 623 2005 1010 -0.18 0.00 0.00 0.000
2:56pm 80 1 4 39 74 75.7 62.5 29.25 62.5 623 2097 1017 -0.07 0.00 0.00 0.000
2:57pm 76 9 9 39 74 75.7 62.5 29.25 61.7 624 2097 1018 -0.07 0.00 0.00 0.000
2:58pm 62 5 9 39 74 75.7 62.5 29.25 62.5 625 2097 1019 -0.07 0.00 0.00 0.000
2:59pm 95 6 10 39 74 75.7 62.5 29.25 62.5 626 2097 1020 -0.07 0.00 0.00 0.000
3:00pm 80 3 10 39 74 75.7 62.4 29.25 62.4 626 2096 1014 -0.17 0.00 0.00 0.000
3:01pm 80 2 4 39 74 75.7 62.4 29.25 62.4 626 2096 1014 -0.16 0.00 0.00 0.000
3:02pm 31 3 4 40 74 75.7 62.5 29.25 62.5 626 2097 1020 -0.06 0.00 0.00 0.000
3:03pm 31 2 4 39 74 75.7 62.6 29.25 62.6 626 2098 1027 0.04 0.00 0.00 0.000
3:04pm 30 1 4 39 74 75.7 62.7 29.25 62.7 626 2099 1033 0.14 0.00 0.00 0.000
3:05pm 81 2 6 39 74 75.7 62.7 29.25 62.7 626 2099 1033 0.14 0.00 0.00 0.000
3:06pm 22 1 5 39 73 75.7 62.8 29.25 62.8 627 2193 1041 0.23 0.00 0.00 0.000
3:07pm 24 2 5 39 73 75.7 62.9 29.25 62.9 627 2194 1047 0.33 0.00 0.00 0.000
3:08pm 79 5 5 39 73 75.7 63.0 29.25 63.0 627 2195 1054 0.42 0.00 0.00 0.000
3:09pm 83 7 8 39 74 75.7 63.0 29.25 62.9 628 2102 1055 0.41 0.00 0.00 0.000
3:10pm 64 4 8 39 74 75.7 62.9 29.25 62.9 628 2101 1048 0.31 0.00 0.00 0.000
3:11pm 82 5 8 39 73 75.7 62.9 29.25 62.9 629 2194 1050 0.30 0.00 0.00 0.000
3:12pm 56 7 8 39 73 75.7 62.9 29.25 62.7 630 2194 1051 0.30 0.00 0.00 0.000
3:13pm 34 5 8 39 73 75.7 62.9 29.24 62.9 631 2194 1052 0.29 0.00 0.00 0.000
3:14pm 58 3 8 39 73 75.7 62.9 29.24 62.9 632 2194 1053 0.29 0.00 0.00 0.000
3:15pm 50 2 8 39 74 75.7 62.9 29.24 62.9 633 2101 1054 0.28 0.00 0.00 0.000
3:16pm 53 4 4 39 73 75.7 63.0 29.24 63.0 634 2195 1062 0.38 0.00 0.00 0.000
3:17pm 92 2 5 39 74 75.7 63.0 29.24 63.0 634 2102 1062 0.37 0.00 0.00 0.000
3:18pm 70 5 8 39 74 75.7 63.0 29.24 63.0 634 2102 1062 0.37 0.00 0.00 0.000
3:19pm 23 1 8 39 73 75.7 63.0 29.24 63.0 634 2195 1062 0.36 0.00 0.00 0.000
3:20pm 83 2 8 39 74 75.7 63.0 29.24 63.0 631 2102 1058 0.35 0.00 0.00 0.000
3:21pm 81 6 8 39 73 75.7 63.0 29.24 63.0 632 2195 1060 0.35 0.00 0.00 0.000
3:22pm 84 3 8 39 73 75.7 63.1 29.24 63.1 633 2196 1067 0.44 0.00 0.00 0.000
3:23pm 84 0 8 39 73 75.7 63.0 29.24 63.0 633 2195 1061 0.34 0.00 0.00 0.000
3:24pm 84 2 8 41 74 75.7 63.0 29.24 63.0 633 2102 1061 0.33 0.00 0.00 0.000
3:25pm 83 1 8 39 74 75.7 63.1 29.24 63.1 633 2103 1067 0.42 0.00 0.00 0.000
3:26pm 83 3 3 39 73 75.7 63.2 29.24 63.2 633 2197 1074 0.52 0.00 0.00 0.000
3:27pm 83 2 3 39 73 75.7 63.2 29.24 63.2 633 2197 1074 0.51 0.00 0.00 0.000
3:28pm 83 3 3 39 73 75.7 63.3 29.24 63.3 631 2198 1078 0.60 0.00 0.00 0.000
3:29pm 84 1 3 39 73 75.7 63.3 29.24 63.3 631 2198 1078 0.59 0.00 0.00 0.000
3:30pm 87 7 8 39 72 75.7 63.4 29.24 63.3 631 2293 1084 0.68 0.00 0.00 0.000
3:31pm 87 2 7 40 72 75.7 63.3 29.24 63.3 631 2292 1078 0.57 0.00 0.00 0.000
3:32pm 87 2 7 39 73 75.7 63.2 29.24 63.2 632 2197 1073 0.46 0.00 0.00 0.000
3:33pm 87 1 7 39 73 75.7 63.2 29.24 63.2 633 2197 1074 0.45 0.00 0.00 0.000
3:34pm 39 2 7 39 73 75.7 63.2 29.24 63.2 634 2197 1075 0.45 0.00 0.00 0.000
3:35pm 25 5 7 39 73 75.7 63.2 29.24 63.2 635 2197 1077 0.44 0.00 0.00 0.000
3:36pm 25 1 5 39 73 75.7 63.2 29.24 63.2 637 2197 1079 0.43 0.00 0.00 0.000
3:37pm 67 2 7 39 73 75.7 63.2 29.24 63.2 637 2197 1079 0.42 0.00 0.00 0.000
3:38pm 79 5 7 39 73 75.7 63.2 29.24 63.2 638 2197 1080 0.42 0.00 0.00 0.000
3:39pm 81 5 7 39 73 75.7 63.2 29.24 63.2 638 2197 1080 0.41 0.00 0.00 0.000
3:40pm 56 3 7 39 73 75.7 63.2 29.24 63.2 637 2197 1079 0.40 0.00 0.00 0.000
3:41pm 64 2 3 39 73 75.7 63.1 29.24 63.1 636 2196 1072 0.30 0.00 0.00 0.000
3:42pm 75 6 7 39 73 75.7 63.1 29.24 63.1 637 2196 1073 0.29 0.00 0.00 0.000
3:43pm 80 4 7 39 72 75.7 63.0 29.24 63.0 636 2289 1065 0.19 0.00 0.00 0.000
3:44pm 79 2 7 39 73 75.7 62.9 29.24 62.9 638 2194 1061 0.08 0.00 0.00 0.000
3:45pm 79 0 7 39 73 75.7 62.9 29.24 62.9 639 2194 1062 0.08 0.00 0.00 0.000
3:46pm 79 0 2 39 74 75.7 63.0 29.24 63.0 639 2102 1069 0.18 0.00 0.00 0.000
3:47pm 59 2 3 39 74 75.7 63.1 29.24 63.1 638 2103 1074 0.28 0.00 0.00 0.000
3:48pm 60 0 3 39 74 75.7 63.2 29.24 63.2 638 2104 1080 0.37 0.00 0.00 0.000
3:49pm 60 1 3 39 74 75.7 63.3 29.24 63.3 636 2104 1085 0.47 0.00 0.00 0.000
3:50pm 60 0 3 39 74 75.7 63.5 29.24 63.5 635 2106 1097 0.66 0.00 0.00 0.000
3:51pm 60 0 1 39 74 75.7 63.6 29.24 63.6 635 2107 1103 0.74 0.00 0.00 0.000
3:52pm 60 0 1 39 74 75.7 63.8 29.24 63.8 634 2109 1115 0.93 0.00 0.00 0.000
3:53pm 60 1 1 39 74 75.7 64.1 29.24 64.1 634 2112 1134 1.21 0.00 0.00 0.000
3:54pm 60 1 2 39 73 75.7 64.3 29.24 64.3 635 2207 1148 1.39 0.00 0.00 0.000
3:55pm 60 3 3 39 73 75.7 64.4 29.24 64.4 634 2208 1154 1.47 0.00 0.00 0.000
3:56pm 66 5 7 39 72 75.7 64.5 29.24 64.5 634 2304 1160 1.54 0.00 0.00 0.000
3:57pm 70 0 7 39 71 75.7 64.5 29.24 64.5 634 2400 1159 1.52 0.00 0.00 0.000
3:58pm 64 1 7 39 71 75.7 64.4 29.24 64.4 634 2399 1152 1.39 0.00 0.00 0.000
3:59pm 64 1 7 39 71 75.7 64.4 29.24 64.4 633 2399 1151 1.37 0.00 0.00 0.000
4:00pm 75 4 7 39 71 75.6 64.3 29.24 64.3 633 2398 1145 1.25 0.00 0.00 0.000
4:01pm 76 2 4 39 71 75.6 64.2 29.24 64.2 632 2397 1137 1.13 0.00 0.00 0.000
4:02pm 76 2 4 41 71 75.6 64.2 29.24 64.2 632 2397 1137 1.11 0.00 0.00 0.000
4:03pm 75 2 4 39 71 75.6 64.1 29.24 64.1 634 2396 1133 0.99 0.00 0.00 0.000
4:04pm 71 4 4 39 72 75.6 64.0 29.24 64.0 634 2299 1128 0.87 0.00 0.00 0.000
4:05pm 71 2 4 39 71 75.6 63.9 29.24 63.9 636 2394 1124 0.76 0.00 0.00 0.000
4:06pm 71 2 3 39 71 75.4 63.8 29.24 63.8 637 2393 1118 0.65 0.00 0.00 0.000
4:07pm 71 1 4 39 72 75.4 63.6 29.24 63.6 637 2295 1105 0.44 0.00 0.00 0.000
4:08pm 71 3 4 39 72 75.4 63.5 29.24 63.5 636 2294 1098 0.33 0.00 0.00 0.000
4:09pm 72 3 4 39 72 75.4 63.5 29.24 63.5 637 2294 1099 0.33 0.00 0.00 0.000
4:10pm 73 3 4 39 73 75.4 63.4 29.24 63.4 638 2199 1093 0.22 0.00 0.00 0.000
4:11pm 73 1 3 39 73 75.4 63.3 29.24 63.3 637 2198 1086 0.12 0.00 0.00 0.000
4:12pm 74 2 3 39 73 75.4 63.2 29.24 63.2 638 2197 1080 0.02 0.00 0.00 0.000
4:13pm 77 2 3 39 73 75.2 63.2 29.24 63.2 639 2197 1082 0.02 0.00 0.00 0.000
4:14pm 77 3 3 40 73 75.2 63.2 29.23 63.2 641 2197 1084 0.02 0.00 0.00 0.000
4:15pm 77 2 3 39 73 75.2 63.3 29.23 63.3 641 2198 1090 0.12 0.00 0.00 0.000
4:16pm 77 2 3 39 74 75.2 63.3 29.23 63.3 641 2104 1090 0.12 0.00 0.00 0.000
4:17pm 77 0 3 39 74 75.2 63.3 29.23 63.3 641 2104 1090 0.11 0.00 0.00 0.000
4:18pm 77 2 3 39 74 75.2 63.3 29.23 63.3 641 2104 1090 0.11 0.00 0.00 0.000
4:19pm 77 3 3 39 74 75.2 63.3 29.23 63.3 641 2104 1090 0.11 0.00 0.00 0.000
4:20pm 77 1 3 39 73 75.2 63.4 29.23 63.4 641 2199 1097 0.21 0.00 0.00 0.000
4:21pm 77 2 2 39 73 75.2 63.4 29.23 63.4 641 2199 1097 0.20 0.00 0.00 0.000
4:22pm 77 3 4 39 74 75.2 63.4 29.23 63.4 641 2105 1097 0.20 0.00 0.00 0.000
4:23pm 77 2 4 39 73 75.2 63.4 29.23 63.4 641 2199 1097 0.20 0.00 0.00 0.000
4:24pm 77 0 4 39 73 75.2 63.4 29.23 63.4 641 2199 1097 0.20 0.00 0.00 0.000
4:25pm 77 1 4 39 74 75.2 63.3 29.23 63.3 641 2104 1090 0.09 0.00 0.00 0.000
4:26pm 77 1 2 40 74 75.2 63.3 29.23 63.3 641 2104 1090 0.09 0.00 0.00 0.000
4:27pm 77 1 2 39 74 75.2 63.3 29.23 63.3 641 2104 1090 0.09 0.00 0.00 0.000
4:28pm 77 3 5 39 74 75.2 63.3 29.23 63.3 641 2104 1090 0.09 0.00 0.00 0.000
4:29pm 71 2 5 39 73 75.2 63.2 29.23 63.2 641 2197 1084 -0.01 0.00 0.00 0.000
4:30pm 71 2 5 39 73 75.2 63.2 29.23 63.2 641 2197 1084 -0.01 0.00 0.00 0.000
4:31pm 74 3 4 39 73 75.2 63.2 29.23 63.2 642 2197 1085 -0.01 0.00 0.00 0.000
4:32pm 75 1 4 39 74 75.2 63.1 29.23 63.1 642 2103 1079 -0.11 0.00 0.00 0.000
4:33pm 75 3 4 39 74 75.2 63.1 29.23 63.1 642 2103 1079 -0.11 0.00 0.00 0.000
4:34pm 75 3 4 39 74 75.2 63.0 29.23 63.0 642 2102 1072 -0.20 0.00 0.00 0.000
4:35pm 76 3 5 39 74 75.2 62.9 29.23 62.9 642 2101 1066 -0.30 0.00 0.00 0.000
4:36pm 76 3 3 39 74 75.2 62.8 29.23 62.8 642 2100 1059 -0.39 0.00 0.00 0.000
4:37pm 76 1 3 39 74 75.2 62.7 29.23 62.7 642 2099 1053 -0.49 0.00 0.00 0.000
4:38pm 76 2 3 39 75 75.2 62.7 29.23 62.7 642 2007 1053 -0.48 0.00 0.00 0.000
4:39pm 76 4 5 39 74 75.2 62.7 29.23 62.7 642 2099 1053 -0.47 0.00 0.00 0.000
4:40pm 76 3 5 39 74 75.2 62.7 29.23 62.7 643 2099 1054 -0.46 0.00 0.00 0.000
4:41pm 70 4 5 39 74 75.2 62.6 29.23 62.6 644 2098 1048 -0.56 0.00 0.00 0.000
4:42pm 78 4 5 39 74 75.2 62.6 29.23 62.6 645 2098 1050 -0.55 0.00 0.00 0.000
4:43pm 56 2 5 39 74 75.2 62.5 29.23 62.5 646 2097 1044 -0.64 0.00 0.00 0.000
4:44pm 57 1 5 39 75 75.2 62.6 29.23 62.6 646 2006 1051 -0.53 0.00 0.00 0.000
4:45pm 79 3 5 39 74 75.2 62.6 29.23 62.6 645 2098 1050 -0.52 0.00 0.00 0.000
4:46pm 81 4 7 39 74 75.2 62.6 29.23 62.6 644 2098 1048 -0.51 0.00 0.00 0.000
4:47pm 81 0 7 39 74 75.2 62.6 29.23 62.6 643 2098 1047 -0.50 0.00 0.00 0.000
4:48pm 81 3 7 39 75 75.2 62.6 29.23 62.6 643 2006 1047 -0.49 0.00 0.00 0.000
4:49pm 81 6 7 39 75 75.2 62.7 29.23 62.7 642 2007 1053 -0.39 0.00 0.00 0.000
4:50pm 81 5 7 39 74 75.2 62.7 29.23 62.7 642 2099 1053 -0.38 0.00 0.00 0.000
4:51pm 81 4 5 39 74 75.4 62.6 29.23 62.6 642 2098 1046 -0.47 0.00 0.00 0.000
4:52pm 81 0 5 39 74 75.4 62.6 29.23 62.6 642 2098 1046 -0.46 0.00 0.00 0.000
4:53pm 81 2 5 39 75 75.4 62.7 29.23 62.7 642 2007 1053 -0.36 0.00 0.00 0.000
4:54pm 81 0 5 39 75 75.4 62.6 29.23 62.6 642 2006 1046 -0.45 0.00 0.00 0.000
4:55pm 81 0 5 39 75 75.4 62.6 29.23 62.6 642 2006 1046 -0.44 0.00 0.00 0.000
4:56pm 81 2 2 39 75 75.4 62.7 29.23 62.7 642 2007 1053 -0.34 0.00 0.00 0.000
4:57pm 81 2 2 39 75 75.4 62.7 29.23 62.7 642 2007 1053 -0.33 0.00 0.00 0.000
4:58pm 81 2 2 39 75 75.4 62.7 29.23 62.7 642 2007 1053 -0.33 0.00 0.00 0.000
4:59pm 81 1 2 40 75 75.4 62.7 29.23 62.7 642 2007 1053 -0.32 0.00 0.00 0.000
5:00pm 81 1 2 39 75 75.4 62.7 29.23 62.7 642 2007 1053 -0.31 0.00 0.00 0.000
5:01pm 81 0 1 40 75 75.4 62.8 29.23 62.8 642 2008 1059 -0.21 0.00 0.00 0.000
5:02pm 81 1 3 39 75 75.4 62.9 29.23 62.9 641 2009 1064 -0.11 0.00 0.00 0.000
5:03pm 81 1 3 39 75 75.4 62.9 29.23 62.9 642 2009 1066 -0.11 0.00 0.00 0.000
5:04pm 81 2 3 39 75 75.4 63.0 29.23 63.0 642 2010 1072 -0.00 0.00 0.00 0.000
5:05pm 81 3 3 39 75 75.4 63.0 29.23 63.0 642 2010 1072 -0.00 0.00 0.00 0.000
5:06pm 81 2 3 39 75 75.4 63.1 29.23 63.1 642 2011 1079 0.09 0.00 0.00 0.000
5:07pm 81 4 4 39 74 75.4 63.2 29.23 63.2 641 2104 1084 0.19 0.00 0.00 0.000
5:08pm 81 2 4 39 74 75.4 63.2 29.23 63.2 641 2104 1084 0.19 0.00 0.00 0.000
5:09pm 81 5 7 39 74 75.4 63.3 29.23 63.3 641 2104 1090 0.28 0.00 0.00 0.000
5:10pm 77 2 7 41 74 75.4 63.3 29.23 63.3 641 2104 1090 0.28 0.00 0.00 0.000
5:11pm 70 1 3 39 74 75.4 63.4 29.23 63.4 641 2105 1097 0.37 0.00 0.00 0.000
5:12pm 59 4 4 40 74 75.4 63.4 29.23 63.4 640 2105 1096 0.37 0.00 0.00 0.000
5:13pm 62 2 4 39 74 75.4 63.4 29.23 63.4 640 2105 1096 0.36 0.00 0.00 0.000
5:14pm 77 3 4 39 74 75.4 63.4 29.23 63.4 640 2105 1096 0.35 0.00 0.00 0.000
5:15pm 79 4 5 39 74 75.4 63.5 29.23 63.5 640 2106 1102 0.45 0.00 0.00 0.000
5:16pm 79 1 6 40 73 75.4 63.4 29.23 63.4 640 2199 1096 0.34 0.00 0.00 0.000
5:17pm 79 0 6 39 74 75.4 63.4 29.23 63.4 640 2105 1096 0.34 0.00 0.00 0.000
5:18pm 79 0 6 39 74 75.4 63.3 29.23 63.3 640 2104 1089 0.23 0.00 0.00 0.000
5:19pm 79 0 6 39 74 75.4 63.3 29.23 63.3 640 2104 1089 0.23 0.00 0.00 0.000
5:20pm 79 1 6 39 75 75.4 63.4 29.23 63.4 640 2013 1096 0.32 0.00 0.00 0.000
5:21pm 79 3 5 40 74 75.4 63.4 29.23 63.4 641 2105 1097 0.32 0.00 0.00 0.000
5:22pm 79 1 5 39 74 75.4 63.4 29.23 63.4 640 2105 1096 0.31 0.00 0.00 0.000
5:23pm 79 4 5 40 74 75.4 63.4 29.23 63.4 640 2105 1096 0.31 0.00 0.00 0.000
5:24pm 81 2 6 40 74 75.4 63.4 29.23 63.4 640 2105 1096 0.30 0.00 0.00 0.000
5:25pm 81 0 6 40 74 75.4 63.4 29.23 63.4 640 2105 1096 0.30 0.00 0.00 0.000
5:26pm 81 1 2 40 75 75.4 63.4 29.23 63.4 640 2013 1096 0.29 0.00 0.00 0.000
5:27pm 81 0 2 40 75 75.4 63.3 29.23 63.3 640 2012 1089 0.19 0.00 0.00 0.000
5:28pm 81 2 3 40 75 75.4 63.3 29.23 63.3 640 2012 1089 0.19 0.00 0.00 0.000
5:29pm 81 2 4 40 74 75.4 63.3 29.23 63.3 640 2104 1089 0.18 0.00 0.00 0.000
5:30pm 81 1 4 39 74 75.4 63.3 29.23 63.3 640 2104 1089 0.18 0.00 0.00 0.000
5:31pm 81 0 2 39 75 75.4 63.3 29.23 63.3 640 2012 1089 0.18 0.00 0.00 0.000
5:32pm 81 2 2 40 75 75.4 63.3 29.23 63.3 640 2012 1089 0.17 0.00 0.00 0.000
5:33pm 84 4 6 40 74 75.4 63.2 29.23 63.2 640 2104 1083 0.07 0.00 0.00 0.000
5:34pm 84 1 6 40 74 75.4 63.2 29.23 63.2 640 2104 1083 0.07 0.00 0.00 0.000
5:35pm 84 0 6 40 75 75.4 63.1 29.23 63.1 640 2011 1076 -0.03 0.00 0.00 0.000
5:36pm 84 0 2 40 75 75.4 63.1 29.23 63.1 640 2011 1076 -0.03 0.00 0.00 0.000
5:37pm 84 1 2 40 76 75.4 63.1 29.23 63.1 640 1919 1076 -0.03 0.00 0.00 0.000
5:38pm 84 0 2 39 76 75.4 63.1 29.23 63.1 640 1919 1076 -0.03 0.00 0.00 0.000
5:39pm 84 0 2 40 76 75.4 63.1 29.23 63.1 640 1919 1076 -0.03 0.00 0.00 0.000
5:40pm 47 2 4 40 76 75.4 63.1 29.23 63.1 640 1919 1076 -0.03 0.00 0.00 0.000
5:41pm 47 1 2 40 76 75.4 63.0 29.23 63.0 640 1919 1070 -0.13 0.00 0.00 0.000
5:42pm 77 3 4 40 76 75.4 63.0 29.23 63.0 640 1919 1070 -0.13 0.00 0.00 0.000
5:43pm 80 5 6 40 75 75.4 63.0 29.23 63.0 640 2010 1070 -0.12 0.00 0.00 0.000
5:44pm 80 0 6 40 75 75.4 62.9 29.23 62.9 640 2009 1063 -0.22 0.00 0.00 0.000
5:45pm 80 2 6 40 76 75.4 62.9 29.23 62.9 640 1918 1063 -0.22 0.00 0.00 0.000
5:46pm 78 4 6 39 76 75.4 62.9 29.23 62.9 640 1918 1063 -0.21 0.00 0.00 0.000
5:47pm 80 1 6 40 76 75.4 62.8 29.23 62.8 640 1917 1057 -0.31 0.00 0.00 0.000
5:48pm 80 0 6 40 76 75.4 62.8 29.23 62.8 640 1917 1057 -0.30 0.00 0.00 0.000
5:49pm 80 1 6 40 76 75.4 62.7 29.23 62.7 640 1916 1050 -0.40 0.00 0.00 0.000
5:50pm 80 0 6 40 76 75.4 62.7 29.24 62.7 639 1916 1049 -0.39 0.00 0.00 0.000
5:51pm 80 2 4 40 76 75.4 62.7 29.24 62.7 639 1916 1049 -0.39 0.00 0.00 0.000
5:52pm 60 3 5 40 76 75.4 62.7 29.24 62.7 639 1916 1049 -0.38 0.00 0.00 0.000
5:53pm 75 3 5 40 76 75.4 62.7 29.24 62.7 639 1916 1049 -0.37 0.00 0.00 0.000
5:54pm 76 0 5 40 76 75.4 62.7 29.24 62.7 638 1916 1048 -0.37 0.00 0.00 0.000
5:55pm 72 0 5 40 76 75.4 62.7 29.24 62.7 639 1916 1049 -0.36 0.00 0.00 0.000
5:56pm 71 1 2 40 76 75.4 62.7 29.24 62.7 638 1916 1048 -0.36 0.00 0.00 0.000
5:57pm 73 1 2 40 76 75.4 62.6 29.24 62.6 638 1915 1042 -0.45 0.00 0.00 0.000
5:58pm 73 1 2 40 76 75.4 62.7 29.24 62.7 638 1916 1048 -0.34 0.00 0.00 0.000
5:59pm 73 1 2 40 76 75.4 62.6 29.24 62.6 638 1915 1042 -0.44 0.00 0.00 0.000
6:00pm 79 2 4 40 76 75.4 62.6 29.24 62.6 637 1915 1040 -0.43 0.00 0.00 0.000
6:01pm 68 3 5 40 76 75.4 62.7 29.24 62.7 638 1916 1048 -0.32 0.00 0.00 0.000
6:02pm 80 6 7 40 76 75.4 62.6 29.24 62.6 638 1915 1042 -0.42 0.00 0.00 0.000
6:03pm 81 3 7 40 76 75.4 62.5 29.24 62.5 638 1915 1035 -0.51 0.00 0.00 0.000
6:04pm 81 3 7 40 76 75.4 62.4 29.24 62.4 638 1914 1029 -0.60 0.00 0.00 0.000
6:05pm 77 4 7 40 77 75.4 62.3 29.24 62.3 638 1823 1022 -0.69 0.00 0.00 0.000
6:06pm 80 1 4 40 76 75.4 62.4 29.24 62.4 639 1914 1030 -0.58 0.00 0.00 0.000
6:07pm 80 2 4 40 76 75.4 62.3 29.24 62.3 639 1913 1023 -0.67 0.00 0.00 0.000
6:08pm 79 7 7 40 76 75.4 62.3 29.24 62.0 639 1913 1023 -0.66 0.00 0.00 0.000
6:09pm 78 2 7 40 76 75.4 62.2 29.24 62.2 639 1912 1017 -0.75 0.00 0.00 0.000
6:10pm 78 3 7 40 76 75.4 62.2 29.24 62.2 639 1912 1017 -0.73 0.00 0.00 0.000
6:11pm 77 1 4 40 76 75.4 62.0 29.24 62.0 639 1910 1004 -0.92 0.00 0.00 0.000
6:12pm 77 2 4 40 77 75.4 62.0 29.23 62.0 640 1821 1005 -0.90 0.00 0.00 0.000
6:13pm 77 0 4 40 77 75.4 62.0 29.23 62.0 640 1821 1005 -0.89 0.00 0.00 0.000
6:14pm 76 0 4 40 77 75.4 61.9 29.23 61.9 640 1820 998 -0.97 0.00 0.00 0.000
6:15pm 76 0 4 40 77 75.4 62.0 29.23 62.0 641 1821 1006 -0.86 0.00 0.00 0.000
6:16pm 76 0 0 40 77 75.4 62.0 29.23 62.0 641 1821 1006 -0.85 0.00 0.00 0.000
6:17pm 76 2 2 40 77 75.4 62.0 29.23 62.0 641 1821 1006 -0.83 0.00 0.00 0.000
6:18pm 80 4 4 40 77 75.4 62.0 29.23 62.0 641 1821 1006 -0.82 0.00 0.00 0.000
6:19pm 80 1 4 40 77 75.4 62.1 29.23 62.1 642 1822 1014 -0.70 0.00 0.00 0.000
6:20pm 80 0 4 40 77 75.4 62.1 29.23 62.1 642 1822 1014 -0.69 0.00 0.00 0.000
6:21pm 80 1 2 40 78 75.4 62.1 29.23 62.1 643 1733 1015 -0.68 0.00 0.00 0.000
6:22pm 80 1 3 40 77 75.2 62.2 29.23 62.2 643 1822 1021 -0.57 0.00 0.00 0.000
6:23pm 80 1 4 40 77 75.2 62.1 29.23 62.1 645 1822 1017 -0.66 0.00 0.00 0.000
6:24pm 80 4 4 40 77 75.2 62.1 29.23 62.1 645 1822 1017 -0.65 0.00 0.00 0.000
6:25pm 80 5 5 40 77 75.2 62.2 29.23 62.2 645 1822 1024 -0.54 0.00 0.00 0.000
6:26pm 83 2 6 40 77 75.2 62.1 29.23 62.1 646 1822 1018 -0.63 0.00 0.00 0.000
6:27pm 83 3 6 40 77 75.2 62.0 29.23 62.0 646 1821 1013 -0.72 0.00 0.00 0.000
6:28pm 85 6 6 40 77 75.2 62.0 29.23 62.0 647 1821 1014 -0.71 0.00 0.00 0.000
6:29pm 85 1 6 40 77 75.0 62.0 29.23 62.0 648 1821 1015 -0.70 0.00 0.00 0.000
6:30pm 85 2 6 40 77 75.0 61.9 29.23 61.9 648 1820 1009 -0.78 0.00 0.00 0.000
6:31pm 85 2 3 40 77 75.0 61.9 29.23 61.9 648 1820 1009 -0.77 0.00 0.00 0.000
6:32pm 77 3 6 40 77 75.0 61.9 29.23 61.9 648 1820 1009 -0.76 0.00 0.00 0.000
6:33pm 59 4 6 40 78 75.0 61.9 29.23 61.9 648 1732 1009 -0.74 0.00 0.00 0.000
6:34pm 73 3 6 40 78 75.0 61.9 29.23 61.9 647 1732 1007 -0.73 0.00 0.00 0.000
6:35pm 70 2 6 40 78 75.0 61.8 29.23 61.8 646 1731 1000 -0.82 0.00 0.00 0.000
6:36pm 71 6 7 40 78 75.0 61.8 29.23 61.7 645 1731 998 -0.81 0.00 0.00 0.000
6:37pm 81 1 7 40 78 75.0 61.7 29.23 61.7 644 1730 990 -0.89 0.00 0.00 0.000
6:38pm 73 4 7 40 78 75.0 61.7 29.23 61.7 643 1730 989 -0.88 0.00 0.00 0.000
6:39pm 83 2 7 40 78 75.0 61.7 29.23 61.7 642 1730 988 -0.86 0.00 0.00 0.000
6:40pm 83 3 7 40 78 75.0 61.6 29.23 61.6 642 1729 981 -0.95 0.00 0.00 0.000
6:41pm 83 2 3 40 78 75.0 61.6 29.23 61.6 642 1729 981 -0.93 0.00 0.00 0.000
6:42pm 33 0 5 40 78 75.0 61.6 29.23 61.6 641 1729 980 -0.92 0.00 0.00 0.000
6:43pm 33 0 5 40 79 75.0 61.6 29.23 61.6 641 1642 980 -0.90 0.00 0.00 0.000
6:44pm 33 0 5 40 79 75.0 61.6 29.23 61.6 641 1642 980 -0.89 0.00 0.00 0.000
6:45pm 33 0 5 40 79 75.0 61.6 29.23 61.6 641 1642 980 -0.87 0.00 0.00 0.000
6:46pm 33 0 0 40 79 75.0 61.6 29.23 61.6 641 1642 980 -0.86 0.00 0.00 0.000
6:47pm 33 0 0 40 79 75.0 61.6 29.23 61.6 641 1642 980 -0.84 0.00 0.00 0.000
6:48pm 33 0 0 40 79 75.0 61.6 29.23 61.6 641 1642 980 -0.83 0.00 0.00 0.000
6:49pm 33 1 1 40 79 75.0 61.6 29.23 61.6 641 1642 980 -0.82 0.00 0.00 0.000
6:50pm 38 0 6 40 79 75.0 61.6 29.23 61.6 641 1642 980 -0.80 0.00 0.00 0.000
6:51pm 38 0 2 40 79 75.0 61.6 29.23 61.6 641 1642 980 -0.79 0.00 0.00 0.000
6:52pm 38 0 2 40 79 75.0 61.7 29.23 61.7 642 1643 988 -0.68 0.00 0.00 0.000
6:53pm 38 0 2 40 79 75.0 61.6 29.23 61.6 642 1642 981 -0.76 0.00 0.00 0.000
6:54pm 38 0 2 40 79 75.0 61.6 29.23 61.6 642 1642 981 -0.75 0.00 0.00 0.000
6:55pm 39 2 2 40 79 75.0 61.6 29.23 61.6 643 1642 982 -0.74 0.00 0.00 0.000
6:56pm 39 1 2 40 79 75.0 61.7 29.23 61.7 643 1643 989 -0.63 0.00 0.00 0.000
6:57pm 39 1 2 40 79 75.0 61.6 29.23 61.6 642 1642 981 -0.72 0.00 0.00 0.000
6:58pm 58 2 2 40 79 75.0 61.6 29.23 61.6 642 1642 981 -0.70 0.00 0.00 0.000
6:59pm 59 2 2 40 79 75.0 61.6 29.23 61.6 642 1642 981 -0.69 0.00 0.00 0.000
7:00pm 59 1 2 40 79 75.0 61.6 29.23 61.6 642 1642 981 -0.68 0.00 0.00 0.000
7:01pm 59 1 1 40 79 75.0 61.6 29.23 61.6 642 1642 981 -0.67 0.00 0.00 0.000
7:02pm 60 0 3 40 79 75.0 61.6 29.23 61.6 642 1642 981 -0.66 0.00 0.00 0.000
7:03pm 60 0 3 40 79 75.0 61.6 29.23 61.6 641 1642 980 -0.65 0.00 0.00 0.000
7:04pm 75 2 4 40 79 75.0 61.6 29.23 61.6 641 1642 980 -0.64 0.00 0.00 0.000
7:05pm 75 0 4 40 80 75.0 61.5 29.23 61.5 641 1555 973 -0.73 0.00 0.00 0.000
7:06pm 66 3 3 40 80 75.0 61.6 29.23 61.6 641 1555 980 -0.62 0.00 0.00 0.000
7:07pm 67 1 3 40 80 75.0 61.5 29.23 61.5 641 1555 973 -0.70 0.00 0.00 0.000
7:08pm 67 0 3 40 80 75.0 61.5 29.23 61.5 640 1555 972 -0.69 0.00 0.00 0.000
7:09pm 67 0 3 40 80 75.0 61.5 29.23 61.5 640 1555 972 -0.68 0.00 0.00 0.000
7:10pm 65 1 3 40 80 75.0 61.5 29.23 61.5 640 1555 972 -0.67 0.00 0.00 0.000
7:11pm 65 1 3 40 80 75.0 61.5 29.23 61.5 640 1555 972 -0.66 0.00 0.00 0.000
7:12pm 65 2 3 40 80 75.0 61.5 29.23 61.5 641 1555 973 -0.65 0.00 0.00 0.000
7:13pm 66 1 3 40 80 75.0 61.4 29.23 61.4 640 1554 966 -0.74 0.00 0.00 0.000
7:14pm 66 0 3 40 80 75.0 61.4 29.23 61.4 640 1554 966 -0.72 0.00 0.00 0.000
7:15pm 66 0 3 40 80 75.0 61.4 29.23 61.4 640 1554 966 -0.71 0.00 0.00 0.000
7:16pm 66 0 0 40 80 75.0 61.4 29.23 61.4 640 1554 966 -0.70 0.00 0.00 0.000
7:17pm 66 1 1 40 80 75.0 61.4 29.23 61.4 640 1554 966 -0.69 0.00 0.00 0.000
7:18pm 66 0 1 40 80 75.0 61.3 29.23 61.3 640 1553 959 -0.78 0.00 0.00 0.000
7:19pm 66 0 1 40 80 75.0 61.3 29.23 61.3 640 1553 959 -0.76 0.00 0.00 0.000
7:20pm 66 0 1 40 80 75.0 61.2 29.23 61.2 641 1553 954 -0.85 0.00 0.00 0.000
7:21pm 66 0 1 40 80 75.0 61.2 29.23 61.2 640 1553 953 -0.84 0.00 0.00 0.000
7:22pm 66 0 1 40 80 75.0 61.3 29.23 61.3 640 1553 959 -0.72 0.00 0.00 0.000
7:23pm 66 0 1 40 80 75.0 61.2 29.23 61.2 641 1553 954 -0.81 0.00 0.00 0.000
7:24pm 66 0 1 40 80 75.0 61.1 29.23 61.1 640 1552 946 -0.89 0.00 0.00 0.000
7:25pm 66 0 1 40 80 75.0 61.2 29.23 61.2 641 1553 954 -0.78 0.00 0.00 0.000
7:26pm 66 0 0 40 81 75.0 61.1 29.23 61.1 640 1467 946 -0.87 0.00 0.00 0.000
7:27pm 66 1 2 40 81 75.0 61.1 29.23 61.1 640 1467 946 -0.85 0.00 0.00 0.000
7:28pm 66 0 2 40 81 75.0 61.1 29.23 61.1 640 1467 946 -0.84 0.00 0.00 0.000
7:29pm 66 2 2 40 81 75.0 61.1 29.23 61.1 640 1467 946 -0.83 0.00 0.00 0.000
7:30pm 66 0 2 40 81 75.0 61.0 29.23 61.0 640 1466 940 -0.91 0.00 0.00 0.000
7:31pm 66 0 1 40 81 75.0 61.0 29.23 61.0 640 1466 940 -0.90 0.00 0.00 0.000
|
Data provided from: Mark Hofmann's Bel Air, MD Weather Station |